PEQUAWKET POND DAM: From 01/23/2019 00:00 to 03/26/2019 00:00

Date LAKE ELEVATION [FT] PRECIPITATION INCREMENT [IN] PRECIPITATION DAILY TOTAL [IN] AIR TEMPERATURE [F] RESERVOIR RELEASE [CFS]
03/24/2019 05:00 -- -- -- -- 87.0
03/24/2019 04:00 455.43 0.00 -- 29.1 89.0
03/24/2019 03:00 455.45 0.00 -- 34.6 90.5
03/24/2019 02:00 455.44 0.00 -- 33.7 92.0
03/24/2019 01:00 455.46 0.00 -- 33.1 91.8
03/24/2019 00:00 455.45 0.00 -- 33.2 91.5
03/23/2019 23:00 455.45 0.00 -- 32.7 90.8
03/23/2019 22:00 455.44 0.00 -- 31.5 90.8
03/23/2019 21:00 455.46 0.00 -- 31.2 91.5
03/23/2019 20:00 455.46 0.00 -- 31.7 92.0
03/23/2019 19:00 455.46 0.00 -- 32.4 90.0
03/23/2019 18:00 455.44 0.00 -- 35.9 89.3
03/23/2019 17:00 455.44 0.00 -- 35.3 89.3
03/23/2019 16:00 455.45 0.00 -- 35.1 88.5
03/23/2019 15:00 455.42 0.00 -- 38.1 85.5
03/23/2019 14:00 455.43 0.00 -- 39.5 86.8
03/23/2019 13:00 455.43 0.00 -- 36.6 86.8
03/23/2019 12:00 455.43 0.00 -- 36.1 86.3
03/23/2019 11:00 455.42 0.00 -- 36.0 86.3
03/23/2019 10:00 455.42 0.00 -- 35.9 85.5
03/23/2019 09:00 455.42 0.00 -- 36.7 84.5
03/23/2019 08:00 455.40 0.00 -- 36.3 81.5
03/23/2019 07:00 455.37 0.00 -- 37.5 79.3
03/23/2019 06:00 455.35 0.00 -- 38.7 76.3
03/23/2019 05:00 455.35 0.00 -- 39.7 75.5
03/23/2019 04:00 455.32 0.00 -- 37.9 73.5
03/23/2019 03:00 455.32 0.00 -- 38.2 73.5
03/23/2019 02:00 455.31 0.00 -- 37.9 71.3
03/23/2019 01:00 455.29 0.00 -- 37.2 69.0
03/23/2019 00:00 455.28 0.00 0.00 37.1 67.5
03/22/2019 23:00 455.28 0.00 -- 37.0 66.8
03/22/2019 22:00 455.26 0.00 -- 36.7 65.0
03/22/2019 21:00 455.25 0.00 -- 36.4 63.3
03/22/2019 20:00 455.24 0.01 -- 36.8 62.0
03/22/2019 19:00 455.22 0.08 -- 37.1 59.8
03/22/2019 18:00 455.21 0.09 -- 37.6 58.5
03/22/2019 17:00 455.20 0.09 -- 37.6 56.5
03/22/2019 16:00 455.20 0.15 -- 36.2 55.5
03/22/2019 15:00 455.18 0.15 -- 35.4 53.5
03/22/2019 14:00 455.16 0.20 -- 36.1 50.8
03/22/2019 13:00 455.15 0.05 -- 36.3 48.0
03/22/2019 12:00 455.14 0.01 -- 35.0 46.0
03/22/2019 11:00 455.13 0.00 -- 33.8 45.0
03/22/2019 10:00 455.12 0.00 -- 33.4 44.0
03/22/2019 09:00 455.12 0.00 -- 33.4 43.5
03/22/2019 08:00 455.11 0.00 -- 33.1 43.0
03/22/2019 07:00 455.11 0.00 -- 33.2 43.0
03/22/2019 06:00 455.11 0.00 -- 35.1 42.5
03/22/2019 05:00 455.11 0.00 -- 35.0 42.0
03/22/2019 04:00 455.11 0.00 -- 35.5 42.3
03/22/2019 03:00 455.10 0.00 -- 35.8 42.3
03/22/2019 02:00 455.10 0.00 -- 35.7 41.8
03/22/2019 01:00 455.10 0.00 -- 36.4 42.3
03/22/2019 00:00 455.09 0.00 0.83 36.5 41.8
03/21/2019 23:00 455.10 0.00 -- 37.6 41.5
03/21/2019 22:00 455.10 0.00 -- 39.1 41.0
03/21/2019 21:00 455.09 0.00 -- 39.9 41.3
03/21/2019 20:00 455.09 0.00 -- 41.1 41.3
03/21/2019 19:00 455.10 0.00 -- 43.1 40.8
03/21/2019 18:00 455.09 0.00 -- 44.8 41.0
03/21/2019 17:00 455.09 0.00 -- 46.5 41.3
03/21/2019 16:00 455.09 0.00 -- 48.4 40.8
03/21/2019 15:00 455.09 0.00 -- 49.3 41.3
03/21/2019 14:00 455.09 0.00 -- 47.8 41.5
03/21/2019 13:00 455.09 0.00 -- 47.5 41.0
03/21/2019 12:00 455.09 0.00 -- 48.9 41.5
03/21/2019 11:00 455.09 0.00 -- 44.6 41.3
03/21/2019 10:00 455.09 0.00 -- 40.9 41.0
03/21/2019 09:00 455.09 0.00 -- 36.4 41.0
03/21/2019 08:00 455.09 0.00 -- 28.7 41.3
03/21/2019 07:00 455.10 0.00 -- 27.3 41.0
03/21/2019 06:00 455.09 0.00 -- 27.4 41.3
03/21/2019 05:00 455.10 0.00 -- 26.0 41.8
03/21/2019 04:00 455.10 0.00 -- 25.4 41.5
03/21/2019 03:00 455.09 0.00 -- 26.3 41.0
03/21/2019 02:00 455.10 0.00 -- 24.7 42.0
03/21/2019 01:00 455.09 0.00 -- 25.2 41.3
03/21/2019 00:00 455.09 0.00 0.00 27.1 41.3
03/20/2019 23:00 455.09 0.00 -- 27.8 41.5
03/20/2019 22:00 455.10 0.00 -- 30.1 41.8
03/20/2019 21:00 455.09 0.00 -- 33.7 41.5
03/20/2019 20:00 455.10 0.00 -- 39.2 41.8
03/20/2019 19:00 455.10 0.00 -- 44.2 41.8
03/20/2019 18:00 455.10 0.00 -- 48.5 41.5
03/20/2019 17:00 455.09 0.00 -- 48.1 41.8
03/20/2019 16:00 455.10 0.00 -- 47.7 41.8
03/20/2019 15:00 455.10 0.00 -- 47.9 42.0
03/20/2019 14:00 455.10 0.00 -- 45.8 42.0
03/20/2019 13:00 455.10 0.00 -- 43.3 41.3
03/20/2019 12:00 455.10 0.00 -- 41.6 41.8
03/20/2019 11:00 455.10 0.00 -- 39.4 41.5
03/20/2019 10:00 455.10 0.00 -- 30.9 42.0
03/20/2019 09:00 455.10 0.00 -- 22.7 42.0
03/20/2019 08:00 455.10 0.00 -- 12.1 41.8
03/20/2019 07:00 455.10 0.00 -- 9.2 42.0
03/20/2019 06:00 455.11 0.00 -- 10.8 42.8
03/20/2019 05:00 455.11 0.00 -- 11.5 43.0
03/20/2019 04:00 455.11 0.00 -- 11.9 43.0
03/20/2019 03:00 455.11 0.00 -- 14.0 43.0
03/20/2019 02:00 455.12 0.00 -- 15.8 43.8
03/20/2019 01:00 455.12 0.00 -- 16.9 43.5
03/20/2019 00:00 455.12 0.00 0.00 18.1 44.0
03/19/2019 23:00 455.12 0.00 -- 19.9 44.0
03/19/2019 22:00 455.12 0.00 -- 22.0 43.8
03/19/2019 21:00 455.12 0.00 -- 24.9 44.3
03/19/2019 20:00 455.12 0.00 -- 27.6 44.3
03/19/2019 19:00 455.12 0.00 -- 32.9 44.3
03/19/2019 18:00 455.13 0.00 -- 36.2 44.8
03/19/2019 17:00 455.13 0.00 -- 39.3 45.0
03/19/2019 16:00 455.13 0.00 -- 39.8 44.8
03/19/2019 15:00 455.13 0.00 -- 37.9 45.0
03/19/2019 14:00 455.14 0.00 -- 36.6 45.0
03/19/2019 13:00 455.13 0.00 -- 37.3 44.8
03/19/2019 12:00 455.13 0.00 -- 34.8 44.5
03/19/2019 11:00 455.15 0.00 -- 32.1 46.8
03/19/2019 10:00 455.13 0.00 -- 32.5 45.0
03/19/2019 09:00 455.13 0.00 -- 23.5 45.3
03/19/2019 08:00 455.13 0.00 -- 19.1 45.3
03/19/2019 07:00 455.14 0.00 -- 17.8 45.8
03/19/2019 06:00 455.14 0.00 -- 15.2 46.3
03/19/2019 05:00 455.14 0.00 -- 13.8 46.0
03/19/2019 04:00 455.15 0.00 -- 13.7 46.5
03/19/2019 03:00 455.15 0.00 -- 15.4 47.0
03/19/2019 02:00 455.14 0.00 -- 16.6 49.0
03/19/2019 01:00 455.16 0.00 -- 18.4 50.8
03/19/2019 00:00 455.16 0.00 0.00 20.3 51.8
03/18/2019 23:00 455.16 0.00 -- 22.8 52.5
03/18/2019 22:00 455.16 0.00 -- 24.4 52.0
03/18/2019 21:00 455.16 0.00 -- 26.1 52.5
03/18/2019 20:00 455.17 0.00 -- 31.8 53.0
03/18/2019 19:00 455.16 0.00 -- 33.2 53.3
03/18/2019 18:00 455.17 0.00 -- 35.3 54.3
03/18/2019 17:00 455.17 0.00 -- 36.3 54.0
03/18/2019 16:00 455.17 0.00 -- 37.7 54.3
03/18/2019 15:00 455.17 0.00 -- 35.7 54.0
03/18/2019 14:00 455.18 0.00 -- 33.6 53.5
03/18/2019 13:00 455.17 0.00 -- 31.9 54.8
03/18/2019 12:00 455.18 0.00 -- 29.5 54.5
03/18/2019 11:00 455.18 0.00 -- 28.8 55.0
03/18/2019 10:00 455.18 0.00 -- 27.8 55.3
03/18/2019 09:00 455.18 0.00 -- 24.9 55.0
03/18/2019 08:00 455.18 0.00 -- 15.5 55.5
03/18/2019 07:00 455.19 0.00 -- 12.8 56.0
03/18/2019 06:00 455.19 0.00 -- 15.1 56.3
03/18/2019 05:00 455.19 0.00 -- 15.7 56.0
03/18/2019 04:00 455.20 0.00 -- 15.6 57.0
03/18/2019 03:00 455.20 0.00 -- 16.3 56.8
03/18/2019 02:00 455.20 0.00 -- 16.7 56.8
03/18/2019 01:00 455.20 0.00 -- 18.5 56.8
03/18/2019 00:00 455.20 0.00 0.00 19.8 57.8
03/17/2019 23:00 455.20 0.00 -- 22.7 57.3
03/17/2019 22:00 455.20 0.00 -- 24.9 57.0
03/17/2019 21:00 455.20 0.00 -- 25.7 57.3
03/17/2019 20:00 455.20 0.00 -- 27.6 57.8
03/17/2019 19:00 455.21 0.00 -- 29.1 58.3
03/17/2019 18:00 455.21 0.00 -- 32.0 58.5
03/17/2019 17:00 455.21 0.00 -- 34.0 58.8
03/17/2019 16:00 455.20 0.00 -- 32.5 58.3
03/17/2019 15:00 455.22 0.00 -- 32.6 59.0
03/17/2019 14:00 455.20 0.00 -- 31.9 57.8
03/17/2019 13:00 455.20 0.00 -- 29.3 58.3
03/17/2019 12:00 455.20 0.00 -- 29.8 58.0
03/17/2019 11:00 455.21 0.00 -- 28.6 58.0
03/17/2019 10:00 455.21 0.00 -- 29.7 57.5
03/17/2019 09:00 455.20 0.00 -- 26.8 57.3
03/17/2019 08:00 455.20 0.00 -- 26.5 57.5
03/17/2019 07:00 455.21 0.00 -- 26.2 57.0
03/17/2019 06:00 455.20 0.00 -- 26.6 56.8
03/17/2019 05:00 455.20 0.00 -- 26.8 56.8
03/17/2019 04:00 455.20 0.00 -- 28.4 57.0
03/17/2019 03:00 455.19 0.00 -- 29.0 56.5
03/17/2019 02:00 455.19 0.00 -- 28.8 56.5
03/17/2019 01:00 455.19 0.00 -- 31.2 55.8
03/17/2019 00:00 455.19 0.00 0.00 32.3 56.3
03/16/2019 23:00 455.19 0.00 -- 32.9 55.5
03/16/2019 22:00 455.19 0.00 -- 33.1 55.8
03/16/2019 21:00 455.18 0.00 -- 33.5 54.8
03/16/2019 20:00 455.18 0.00 -- 34.3 54.5
03/16/2019 19:00 455.17 0.00 -- 35.1 53.5
03/16/2019 18:00 455.18 0.00 -- 39.3 54.0
03/16/2019 17:00 455.16 0.00 -- 39.3 54.0
03/16/2019 16:00 455.17 0.00 -- 39.8 53.5
03/16/2019 15:00 455.16 0.00 -- 39.5 52.5
03/16/2019 14:00 455.16 0.00 -- 40.2 50.8
03/16/2019 13:00 455.14 0.00 -- 41.2 50.5
03/16/2019 12:00 455.15 0.00 -- 42.8 46.8
03/16/2019 11:00 455.14 0.00 -- 43.7 45.8
03/16/2019 10:00 455.14 0.00 -- 44.4 45.8
03/16/2019 09:00 455.14 0.00 -- 43.5 45.3
03/16/2019 08:00 455.13 0.00 -- 42.3 44.3
03/16/2019 07:00 455.12 0.00 -- 43.9 44.3
03/16/2019 06:00 455.12 0.00 -- 44.8 43.8
03/16/2019 05:00 455.11 0.00 -- 45.5 42.8
03/16/2019 04:00 455.11 0.00 -- 46.8 42.5
03/16/2019 03:00 455.10 0.00 -- 40.3 41.8
03/16/2019 02:00 455.09 0.00 -- 35.5 40.8
03/16/2019 01:00 455.08 0.00 -- 35.2 40.3
03/16/2019 00:00 455.08 0.00 0.00 36.2 39.8
03/15/2019 23:00 455.08 0.00 -- 37.1 40.5
03/15/2019 22:00 455.07 0.00 -- 39.6 38.3
03/15/2019 21:00 455.06 0.00 -- 38.0 38.0
03/15/2019 20:00 455.06 0.00 -- 39.9 37.5
03/15/2019 19:00 455.05 0.00 -- 49.1 36.8
03/15/2019 18:00 455.04 0.00 -- 62.5 36.3
03/15/2019 17:00 455.04 0.00 -- 62.5 36.0
03/15/2019 16:00 455.03 0.00 -- 60.1 35.3
03/15/2019 15:00 455.03 0.00 -- 56.4 35.0
03/15/2019 14:00 455.02 0.00 -- 53.7 34.3
03/15/2019 13:00 455.02 0.00 -- 47.0 34.0
03/15/2019 12:00 455.02 0.00 -- 40.9 34.0
03/15/2019 11:00 455.02 0.00 -- 40.4 34.0
03/15/2019 10:00 455.02 0.02 -- 38.5 34.0
03/15/2019 09:00 455.01 0.01 -- 36.3 34.0
03/15/2019 08:00 455.01 0.00 -- 35.2 33.8
03/15/2019 07:00 455.01 0.00 -- 34.7 33.8
03/15/2019 06:00 455.01 0.00 -- 34.7 33.5
03/15/2019 05:00 455.01 0.00 -- 34.6 33.3
03/15/2019 04:00 455.00 0.00 -- 34.3 33.0
03/15/2019 03:00 455.00 0.00 -- 33.9 33.0
03/15/2019 02:00 455.00 0.00 -- 33.6 33.0
03/15/2019 01:00 455.00 0.00 -- 33.1 33.0
03/15/2019 00:00 455.00 0.00 0.03 31.7 33.0
03/14/2019 23:00 455.00 0.00 -- 31.9 32.8
03/14/2019 22:00 455.00 0.00 -- 34.4 32.8
03/14/2019 21:00 455.00 0.00 -- 37.2 32.3
03/14/2019 20:00 454.99 0.00 -- 40.5 32.8
03/14/2019 19:00 455.00 0.00 -- 43.1 33.0
03/14/2019 18:00 454.99 0.01 -- 45.2 32.3
03/14/2019 17:00 454.99 0.01 -- 45.8 32.0
03/14/2019 16:00 454.99 0.03 -- 46.5 32.0
03/14/2019 15:00 454.99 0.04 -- 47.7 32.0
03/14/2019 14:00 454.99 0.03 -- 44.3 32.3
03/14/2019 13:00 454.99 0.03 -- 41.8 32.0
03/14/2019 12:00 454.99 0.04 -- 40.1 32.0
03/14/2019 11:00 454.99 0.01 -- 37.1 32.3
03/14/2019 10:00 454.99 0.00 -- 35.7 32.3
03/14/2019 09:00 455.00 0.00 -- 33.4 32.3
03/14/2019 08:00 454.99 0.00 -- 32.0 32.0
03/14/2019 07:00 454.99 0.00 -- 31.1 32.5
03/14/2019 06:00 454.99 0.00 -- 30.7 32.5
03/14/2019 05:00 455.00 0.00 -- 30.7 33.0
03/14/2019 04:00 454.99 0.00 -- 31.1 32.8
03/14/2019 03:00 454.99 0.00 -- 31.5 32.8
03/14/2019 02:00 455.00 0.00 -- 31.9 32.8
03/14/2019 01:00 454.99 0.00 -- 32.9 32.5
03/14/2019 00:00 455.00 0.00 0.20 33.2 33.0
03/13/2019 23:00 455.00 0.00 -- 34.4 33.0
03/13/2019 22:00 454.99 0.00 -- 38.6 32.8
03/13/2019 21:00 455.00 0.00 -- 38.7 33.0
03/13/2019 20:00 454.99 0.00 -- 38.7 32.3
03/13/2019 19:00 455.00 0.01 -- 39.4 32.8
03/13/2019 18:00 455.00 0.00 -- 40.1 33.0
03/13/2019 17:00 455.00 0.00 -- 41.4 33.0
03/13/2019 16:00 455.00 0.01 -- 42.4 32.5
03/13/2019 15:00 455.00 0.01 -- 41.5 33.0
03/13/2019 14:00 455.00 0.02 -- 40.9 33.0
03/13/2019 13:00 455.00 0.01 -- 42.6 33.0
03/13/2019 12:00 455.00 0.02 -- 39.6 33.0
03/13/2019 11:00 455.01 0.00 -- 37.9 33.0
03/13/2019 10:00 455.00 0.00 -- 31.9 33.0
03/13/2019 09:00 455.00 0.00 -- 20.8 33.0
03/13/2019 08:00 455.00 0.00 -- 12.6 33.0
03/13/2019 07:00 455.01 0.00 -- 12.6 33.0
03/13/2019 06:00 455.00 0.00 -- 13.1 33.0
03/13/2019 05:00 455.01 0.00 -- 14.5 33.3
03/13/2019 04:00 455.01 0.00 -- 15.7 33.5
03/13/2019 03:00 455.01 0.00 -- 17.8 33.5
03/13/2019 02:00 455.01 0.00 -- 20.2 33.5
03/13/2019 01:00 455.01 0.00 -- 23.1 33.5
03/13/2019 00:00 455.01 0.00 0.08 23.5 33.5
03/12/2019 23:00 455.01 0.00 -- 25.3 33.8
03/12/2019 22:00 455.01 0.00 -- 27.8 33.5
03/12/2019 21:00 455.01 0.00 -- 29.0 33.8
03/12/2019 20:00 455.01 0.00 -- 30.1 34.0
03/12/2019 19:00 455.02 0.00 -- 31.5 34.0
03/12/2019 18:00 455.01 0.00 -- 34.7 34.0
03/12/2019 17:00 455.01 0.01 -- 36.0 34.0
03/12/2019 16:00 455.01 0.02 -- 36.6 34.0
03/12/2019 15:00 455.01 0.03 -- 36.9 34.0
03/12/2019 14:00 455.02 0.03 -- 36.2 34.5
03/12/2019 13:00 455.02 0.01 -- 35.2 34.8
03/12/2019 12:00 455.02 0.00 -- 33.2 34.8
03/12/2019 11:00 455.02 0.00 -- 32.8 34.5
03/12/2019 10:00 455.02 0.00 -- 31.5 34.8
03/12/2019 09:00 455.02 0.00 -- 29.6 34.5
03/12/2019 08:00 455.03 0.00 -- 28.8 35.0
03/12/2019 07:00 455.03 0.00 -- 28.7 35.8
03/12/2019 06:00 455.02 0.00 -- 28.9 34.8
03/12/2019 05:00 455.02 0.00 -- 30.0 34.5
03/12/2019 04:00 455.02 0.00 -- 30.6 34.3
03/12/2019 03:00 455.02 0.00 -- 32.2 34.0
03/12/2019 02:00 455.01 0.00 -- 32.0 34.0
03/12/2019 01:00 455.02 0.00 -- 32.6 34.5
03/12/2019 00:00 455.02 0.00 0.10 35.2 35.0
03/11/2019 23:00 455.03 0.00 -- 35.6 34.8
03/11/2019 22:00 455.02 0.01 -- 35.8 34.0
03/11/2019 21:00 455.01 0.00 -- 36.7 34.0
03/11/2019 20:00 455.02 0.00 -- 37.0 34.0
03/11/2019 19:00 455.01 0.01 -- 37.4 33.8
03/11/2019 18:00 455.02 0.02 -- 38.4 34.0
03/11/2019 17:00 455.01 0.04 -- 40.4 34.0
03/11/2019 16:00 455.02 0.03 -- 41.7 34.0
03/11/2019 15:00 455.01 0.06 -- 42.2 33.5
03/11/2019 14:00 455.01 0.09 -- 43.1 33.8
03/11/2019 13:00 455.01 0.13 -- 43.8 34.0
03/11/2019 12:00 455.02 0.11 -- 42.8 33.8
03/11/2019 11:00 455.00 0.05 -- 38.2 33.3
03/11/2019 10:00 455.00 0.04 -- 37.5 32.3
03/11/2019 09:00 454.99 0.02 -- 35.8 32.3
03/11/2019 08:00 454.99 0.01 -- 35.4 32.0
03/11/2019 07:00 455.00 0.01 -- 35.4 33.8
03/11/2019 06:00 455.00 0.00 -- 35.9 33.3
03/11/2019 05:00 455.01 0.00 -- 35.7 33.0
03/11/2019 04:00 455.01 0.00 -- 34.5 33.8
03/11/2019 03:00 455.01 0.00 -- 33.4 33.3
03/11/2019 02:00 455.01 0.00 -- 31.9 33.3
03/11/2019 01:00 455.01 0.00 -- 28.5 33.3
03/11/2019 00:00 455.01 0.00 0.63 29.7 33.0
03/10/2019 23:00 455.00 0.00 -- 30.6 33.0
03/10/2019 22:00 455.00 0.00 -- 30.3 33.0
03/10/2019 21:00 455.00 0.00 -- 29.9 33.0
03/10/2019 20:00 455.00 0.00 -- 29.6 33.0
03/10/2019 19:00 455.00 0.00 -- 28.1 33.0
03/10/2019 18:00 455.00 0.00 -- 27.6 33.0
03/10/2019 17:00 455.00 0.00 -- 26.9 32.3
03/10/2019 16:00 454.99 0.00 -- 25.3 32.0
03/10/2019 15:00 454.99 0.00 -- 25.4 32.0
03/10/2019 14:00 454.99 0.00 -- 25.2 32.0
03/10/2019 13:00 454.99 0.00 -- 23.5 32.0
03/10/2019 12:00 454.99 0.00 -- 21.3 32.0
03/10/2019 11:00 454.98 0.00 -- 21.3 31.5
03/10/2019 10:00 454.98 0.00 -- 22.7 31.8
03/10/2019 09:00 454.98 0.00 -- 20.5 31.3
03/10/2019 08:00 454.98 0.00 -- 17.2 31.3
03/10/2019 07:00 454.98 0.00 -- 16.5 31.3
03/10/2019 06:00 454.98 0.00 -- 14.4 31.0
03/10/2019 05:00 454.98 0.00 -- 13.8 31.5
03/10/2019 04:00 454.98 0.00 -- 13.0 31.5
03/10/2019 03:00 454.98 0.00 -- 13.2 31.8
03/10/2019 02:00 454.99 0.00 -- 14.7 31.3
03/10/2019 01:00 454.99 0.00 -- 14.7 31.5
03/10/2019 00:00 454.99 0.00 0.00 16.0 32.0
03/09/2019 23:00 454.98 0.00 -- 18.1 32.0
03/09/2019 22:00 454.99 0.00 -- 19.8 32.0
03/09/2019 21:00 454.99 0.00 -- 22.6 32.0
03/09/2019 20:00 454.99 0.00 -- 25.7 32.0
03/09/2019 19:00 454.99 0.00 -- 32.8 32.0
03/09/2019 18:00 454.99 0.00 -- 36.0 32.0
03/09/2019 17:00 454.99 0.00 -- 43.0 32.0
03/09/2019 16:00 454.99 0.04 -- 45.8 32.0
03/09/2019 15:00 454.99 0.07 -- 42.8 32.0
03/09/2019 14:00 454.99 0.08 -- 43.7 32.3
03/09/2019 13:00 454.99 0.06 -- 43.9 32.0
03/09/2019 12:00 454.99 0.01 -- 43.6 32.0
03/09/2019 11:00 454.99 0.00 -- 43.5 32.0
03/09/2019 10:00 454.98 0.00 -- 38.2 31.5
03/09/2019 09:00 454.98 0.00 -- 32.8 30.5
03/09/2019 08:00 454.98 0.00 -- 21.1 31.0
03/09/2019 07:00 454.98 0.00 -- 6.2 31.0
03/09/2019 06:00 454.98 0.00 -- 7.4 31.0
03/09/2019 05:00 454.98 0.00 -- 8.3 31.3
03/09/2019 04:00 454.99 0.00 -- 10.7 31.5
03/09/2019 03:00 454.98 0.00 -- 12.7 32.0
03/09/2019 02:00 454.99 0.00 -- 15.9 32.0
03/09/2019 01:00 454.98 0.00 -- 23.9 32.0
03/09/2019 00:00 455.00 0.00 0.26 25.9 32.3
03/08/2019 23:00 454.99 0.00 -- 28.3 32.0
03/08/2019 22:00 454.99 0.00 -- 29.6 32.3
03/08/2019 21:00 455.00 0.00 -- 28.9 32.3
03/08/2019 20:00 454.99 0.00 -- 27.5 32.0
03/08/2019 19:00 454.99 0.00 -- 29.0 32.0
03/08/2019 18:00 454.99 0.00 -- 31.9 32.0
03/08/2019 17:00 454.99 0.00 -- 36.0 32.3
03/08/2019 16:00 455.00 0.00 -- 36.3 32.3
03/08/2019 15:00 454.99 0.00 -- 36.6 32.3
03/08/2019 14:00 454.99 0.00 -- 36.0 31.8
03/08/2019 13:00 454.99 0.00 -- 32.9 32.0
03/08/2019 12:00 454.98 0.00 -- 28.6 31.5
03/08/2019 11:00 454.98 0.00 -- 25.7 31.0
03/08/2019 10:00 454.97 0.00 -- 23.2 30.5
03/08/2019 09:00 454.97 0.00 -- 13.5 30.8
03/08/2019 08:00 454.97 0.00 -- 4.4 30.8
03/08/2019 07:00 454.97 0.00 -- -4.7 30.8
03/08/2019 06:00 454.98 0.00 -- -4.9 31.0
03/08/2019 05:00 454.98 0.00 -- -3.4 31.0
03/08/2019 04:00 454.98 0.00 -- -2.5 31.0
03/08/2019 03:00 454.98 0.00 -- -3.2 31.3
03/08/2019 02:00 454.98 0.00 -- -1.0 32.0
03/08/2019 01:00 454.99 0.00 -- -0.1 32.0
03/08/2019 00:00 454.99 0.00 0.00 2.9 32.5
03/07/2019 23:00 455.00 0.00 -- 6.1 33.0
03/07/2019 22:00 455.00 0.00 -- 10.2 33.0
03/07/2019 21:00 455.00 0.00 -- 15.2 33.0
03/07/2019 20:00 455.00 0.00 -- 14.5 33.0
03/07/2019 19:00 455.00 0.00 -- 16.7 33.0
03/07/2019 18:00 455.00 0.00 -- 19.3 33.0
03/07/2019 17:00 455.00 0.00 -- 20.8 33.0
03/07/2019 16:00 455.00 0.00 -- 21.6 33.0
03/07/2019 15:00 454.99 0.00 -- 21.6 32.8
03/07/2019 14:00 455.00 0.00 -- 21.7 32.5
03/07/2019 13:00 455.00 0.00 -- 20.8 32.3
03/07/2019 12:00 454.99 0.00 -- 21.8 32.0
03/07/2019 11:00 454.99 0.00 -- 19.1 31.8
03/07/2019 10:00 454.98 0.00 -- 17.4 31.0
03/07/2019 09:00 454.98 0.00 -- 12.0 31.0
03/07/2019 08:00 454.97 0.00 -- 2.5 31.0
03/07/2019 07:00 454.98 0.00 -- -4.1 31.0
03/07/2019 06:00 454.98 0.00 -- -3.3 31.5
03/07/2019 05:00 454.98 0.00 -- -7.3 31.8
03/07/2019 04:00 454.98 0.00 -- -8.1 31.8
03/07/2019 03:00 454.99 0.00 -- -5.6 32.3
03/07/2019 02:00 454.99 0.00 -- -3.8 32.8
03/07/2019 01:00 455.00 0.00 -- -2.3 33.0
03/07/2019 00:00 455.00 0.00 0.00 0.3 33.0
03/06/2019 23:00 455.01 0.00 -- 2.0 33.8
03/06/2019 22:00 455.01 0.00 -- 3.7 34.0
03/06/2019 21:00 455.02 0.00 -- 6.3 34.0
03/06/2019 20:00 455.01 0.00 -- 9.7 34.0
03/06/2019 19:00 455.01 0.00 -- 12.1 34.0
03/06/2019 18:00 455.01 0.00 -- 14.9 34.3
03/06/2019 17:00 455.02 0.00 -- 17.6 34.0
03/06/2019 16:00 455.02 0.00 -- 18.6 34.3
03/06/2019 15:00 455.02 0.00 -- 17.6 34.3
03/06/2019 14:00 455.02 0.00 -- 19.6 34.8
03/06/2019 13:00 455.01 0.00 -- 17.9 34.0
03/06/2019 12:00 455.02 0.00 -- 17.9 34.3
03/06/2019 11:00 455.02 0.01 -- 17.5 34.3
03/06/2019 10:00 455.01 0.00 -- 17.2 33.8
03/06/2019 09:00 455.01 0.00 -- 17.2 33.0
03/06/2019 08:00 455.00 0.00 -- 13.5 32.8
03/06/2019 07:00 455.01 0.00 -- -1.9 33.3
03/06/2019 06:00 455.01 0.00 -- -2.8 33.8
03/06/2019 05:00 455.02 0.00 -- 0.5 34.3
03/06/2019 04:00 455.02 0.00 -- 0.9 34.5
03/06/2019 03:00 455.03 0.00 -- 1.9 35.0
03/06/2019 02:00 455.03 0.00 -- 5.5 34.8
03/06/2019 01:00 455.03 0.00 -- 8.0 35.0
03/06/2019 00:00 455.03 0.00 0.01 12.9 35.0
03/05/2019 23:00 455.03 0.00 -- 18.8 35.0
03/05/2019 22:00 455.03 0.00 -- 19.2 35.3
03/05/2019 21:00 455.03 0.00 -- 20.0 35.3
03/05/2019 20:00 455.03 0.00 -- 17.4 35.5
03/05/2019 19:00 455.03 0.00 -- 19.2 35.8
03/05/2019 18:00 455.03 0.00 -- 23.6 35.5
03/05/2019 17:00 455.03 0.00 -- 26.9 35.5
03/05/2019 16:00 455.03 0.00 -- 29.1 35.8
03/05/2019 15:00 455.04 0.00 -- 28.1 35.8
03/05/2019 14:00 455.04 0.00 -- 29.0 36.0
03/05/2019 13:00 455.04 0.00 -- 27.8 35.8
03/05/2019 12:00 455.03 0.00 -- 27.0 35.8
03/05/2019 11:00 455.03 0.00 -- 22.9 36.0
03/05/2019 10:00 455.03 0.00 -- 21.7 35.8
03/05/2019 09:00 455.03 0.00 -- 20.9 35.3
03/05/2019 08:00 455.03 0.00 -- 13.3 35.5
03/05/2019 07:00 455.03 0.00 -- 3.1 36.0
03/05/2019 06:00 455.04 0.00 -- 3.6 36.0
03/05/2019 05:00 455.04 0.00 -- 7.1 36.0
03/05/2019 04:00 455.04 0.00 -- 9.3 36.0
03/05/2019 03:00 455.04 0.00 -- 8.5 36.3
03/05/2019 02:00 455.04 0.00 -- 12.3 36.3
03/05/2019 01:00 455.04 0.00 -- 17.4 36.5
03/05/2019 00:00 455.04 0.00 0.00 20.1 36.5
03/04/2019 23:00 455.04 0.00 -- 19.2 36.5
03/04/2019 22:00 455.04 0.00 -- 22.9 36.5
03/04/2019 21:00 455.04 0.00 -- 23.4 36.5
03/04/2019 20:00 455.05 0.00 -- 24.8 36.8
03/04/2019 19:00 455.05 0.00 -- 25.9 36.8
03/04/2019 18:00 455.04 0.00 -- 27.3 37.0
03/04/2019 17:00 455.05 0.01 -- 29.8 37.0
03/04/2019 16:00 455.05 0.02 -- 33.2 37.3
03/04/2019 15:00 455.05 0.03 -- 34.8 37.0
03/04/2019 14:00 455.05 0.02 -- 34.5 37.0
03/04/2019 13:00 455.05 0.02 -- 35.1 37.0
03/04/2019 12:00 455.05 0.00 -- 37.2 36.8
03/04/2019 11:00 455.04 0.00 -- 34.0 37.3
03/04/2019 10:00 455.05 0.00 -- 32.2 37.0
03/04/2019 09:00 455.05 0.00 -- 30.3 37.0
03/04/2019 08:00 455.04 0.00 -- 29.7 36.5
03/04/2019 07:00 455.04 0.00 -- 29.3 36.0
03/04/2019 06:00 455.05 0.00 -- 29.3 37.0
03/04/2019 05:00 455.05 0.00 -- 29.4 36.8
03/04/2019 04:00 455.04 0.00 -- 29.6 36.8
03/04/2019 03:00 455.04 0.00 -- 29.5 36.3
03/04/2019 02:00 455.04 0.00 -- 29.6 36.0
03/04/2019 01:00 455.03 0.00 -- 29.8 36.0
03/04/2019 00:00 455.04 0.00 0.10 29.4 35.8
03/03/2019 23:00 455.03 0.00 -- 29.3 35.0
03/03/2019 22:00 455.03 0.00 -- 30.8 35.0
03/03/2019 21:00 455.03 0.00 -- 31.3 35.0
03/03/2019 20:00 455.03 0.00 -- 31.3 35.0
03/03/2019 19:00 455.03 0.00 -- 32.8 35.0
03/03/2019 18:00 455.03 0.01 -- 35.4 35.8
03/03/2019 17:00 455.03 0.01 -- 36.9 35.8
03/03/2019 16:00 455.04 0.03 -- 41.8 35.5
03/03/2019 15:00 455.03 0.05 -- 39.1 35.0
03/03/2019 14:00 455.03 0.02 -- 38.1 35.5
03/03/2019 13:00 455.04 0.02 -- 37.0 36.0
03/03/2019 12:00 455.03 0.01 -- 36.2 36.0
03/03/2019 11:00 455.03 0.00 -- 35.8 35.3
03/03/2019 10:00 455.03 0.00 -- 34.2 35.5
03/03/2019 09:00 455.03 0.00 -- 31.2 35.3
03/03/2019 08:00 455.03 0.00 -- 19.5 35.3
03/03/2019 07:00 455.03 0.00 -- 14.7 35.5
03/03/2019 06:00 455.03 0.00 -- 14.7 35.8
03/03/2019 05:00 455.03 0.00 -- 13.6 36.0
03/03/2019 04:00 455.03 0.00 -- 12.1 36.0
03/03/2019 03:00 455.04 0.00 -- 13.7 36.0
03/03/2019 02:00 455.03 0.00 -- 17.0 36.0
03/03/2019 01:00 455.04 0.00 -- 20.0 36.0
03/03/2019 00:00 455.04 0.00 0.15 21.2 36.0
03/02/2019 23:00 455.04 0.00 -- 24.9 36.0
03/02/2019 22:00 455.04 0.00 -- 28.1 36.0
03/02/2019 21:00 455.04 0.00 -- 30.1 36.0
03/02/2019 20:00 455.04 0.00 -- 29.4 36.0
03/02/2019 19:00 455.04 0.00 -- 30.5 36.0
03/02/2019 18:00 455.04 0.00 -- 30.9 36.0
03/02/2019 17:00 455.04 0.00 -- 33.3 36.3
03/02/2019 16:00 455.04 0.00 -- 33.9 36.0
03/02/2019 15:00 455.04 0.00 -- 33.8 36.0
03/02/2019 14:00 455.04 0.00 -- 33.5 36.0
03/02/2019 13:00 455.04 0.00 -- 32.9 36.0
03/02/2019 12:00 455.04 0.00 -- 32.1 36.0
03/02/2019 11:00 455.04 0.00 -- 30.9 36.0
03/02/2019 10:00 455.04 0.00 -- 24.3 36.0
03/02/2019 09:00 455.04 0.00 -- 22.1 36.0
03/02/2019 08:00 455.03 0.00 -- 15.2 35.8
03/02/2019 07:00 455.04 0.00 -- 11.1 36.0
03/02/2019 06:00 455.04 0.00 -- 10.2 36.0
03/02/2019 05:00 455.04 0.00 -- 10.1 36.3
03/02/2019 04:00 455.04 0.00 -- 10.8 36.3
03/02/2019 03:00 455.04 0.00 -- 11.2 36.3
03/02/2019 02:00 455.04 0.00 -- 13.2 36.0
03/02/2019 01:00 455.05 0.00 -- 13.7 36.8
03/02/2019 00:00 455.05 0.00 0.00 15.6 36.8
03/01/2019 23:00 455.05 0.00 -- 15.4 36.8
03/01/2019 22:00 455.04 0.00 -- 16.2 36.5
03/01/2019 21:00 455.04 0.00 -- 20.7 36.5
03/01/2019 20:00 455.05 0.00 -- 22.8 36.8
03/01/2019 19:00 455.05 0.00 -- 25.4 36.8
03/01/2019 18:00 455.05 0.00 -- 29.6 37.0
03/01/2019 17:00 455.05 0.00 -- 35.5 36.8
03/01/2019 16:00 455.04 0.00 -- 36.7 37.0
03/01/2019 15:00 455.04 0.00 -- 38.6 36.5
03/01/2019 14:00 455.05 0.00 -- 36.2 36.8
03/01/2019 13:00 455.05 0.00 -- 32.4 36.5
03/01/2019 12:00 455.04 0.00 -- 29.5 36.0
03/01/2019 11:00 455.04 0.00 -- 28.1 36.0
03/01/2019 10:00 455.03 0.00 -- 28.9 36.0
03/01/2019 09:00 455.03 0.00 -- 14.4 35.8
03/01/2019 08:00 455.04 0.00 -- 5.1 36.0
03/01/2019 07:00 455.04 0.00 -- 0.3 36.3
03/01/2019 06:00 455.04 0.00 -- 1.0 36.0
03/01/2019 05:00 455.05 0.00 -- 0.4 36.5
03/01/2019 04:00 455.05 0.00 -- 0.4 37.0
03/01/2019 03:00 455.05 0.00 -- 1.6 37.3
03/01/2019 02:00 455.05 0.00 -- 2.2 37.3
03/01/2019 01:00 455.05 0.00 -- 2.1 37.3
03/01/2019 00:00 455.05 0.00 0.00 2.6 37.5
02/28/2019 23:00 455.06 0.00 -- 5.0 38.0
02/28/2019 22:00 455.06 0.00 -- 8.4 38.0
02/28/2019 21:00 455.06 0.00 -- 11.7 38.0
02/28/2019 20:00 455.07 0.00 -- 17.1 38.5
02/28/2019 19:00 455.06 0.00 -- 17.9 38.5
02/28/2019 18:00 455.07 0.00 -- 23.4 38.8
02/28/2019 17:00 455.07 0.00 -- 28.1 38.3
02/28/2019 16:00 455.07 0.01 -- 29.1 38.8
02/28/2019 15:00 455.07 0.00 -- 28.5 38.5
02/28/2019 14:00 455.07 0.01 -- 32.6 38.3
02/28/2019 13:00 455.06 0.00 -- 29.4 38.0
02/28/2019 12:00 455.06 0.00 -- 23.0 38.5
02/28/2019 11:00 455.07 0.00 -- 19.6 38.5
02/28/2019 10:00 455.07 0.00 -- 17.3 38.3
02/28/2019 09:00 455.07 0.00 -- 14.4 38.5
02/28/2019 08:00 455.07 0.00 -- 10.6 38.5
02/28/2019 07:00 455.07 0.00 -- 9.8 38.8
02/28/2019 06:00 455.06 0.00 -- 10.0 38.8
02/28/2019 05:00 455.07 0.00 -- 10.5 39.0
02/28/2019 04:00 455.07 0.00 -- 10.9 39.0
02/28/2019 03:00 455.07 0.00 -- 10.6 39.0
02/28/2019 02:00 455.07 0.00 -- 11.5 39.0
02/28/2019 01:00 455.07 0.00 -- 10.9 39.0
02/28/2019 00:00 455.07 0.00 0.02 11.3 39.3
02/27/2019 23:00 455.07 0.00 -- 11.6 39.0
02/27/2019 22:00 455.07 0.00 -- 12.0 39.0
02/27/2019 21:00 455.07 0.00 -- 13.8 39.0
02/27/2019 20:00 455.07 0.00 -- 14.8 39.0
02/27/2019 19:00 455.07 0.00 -- 14.9 39.0
02/27/2019 18:00 455.07 0.00 -- 15.7 39.0
02/27/2019 17:00 455.07 0.00 -- 16.3 38.8
02/27/2019 16:00 455.07 0.00 -- 16.9 38.8
02/27/2019 15:00 455.07 0.00 -- 18.4 38.3
02/27/2019 14:00 455.06 0.00 -- 17.0 38.0
02/27/2019 13:00 455.06 0.00 -- 17.9 38.0
02/27/2019 12:00 455.05 0.00 -- 15.9 36.8
02/27/2019 11:00 455.04 0.00 -- 14.0 35.8
02/27/2019 10:00 455.03 0.00 -- 14.6 35.0
02/27/2019 09:00 455.02 0.00 -- 11.1 35.0
02/27/2019 08:00 455.03 0.00 -- 7.8 35.0
02/27/2019 07:00 455.03 0.00 -- 1.4 35.8
02/27/2019 06:00 455.04 0.00 -- 3.6 35.8
02/27/2019 05:00 455.04 0.00 -- 3.8 36.0
02/27/2019 04:00 455.04 0.00 -- 3.5 36.0
02/27/2019 03:00 455.04 0.00 -- 3.3 36.5
02/27/2019 02:00 455.05 0.00 -- 4.3 37.3
02/27/2019 01:00 455.04 0.00 -- 5.4 37.8
02/27/2019 00:00 455.06 0.00 0.00 5.8 38.5
02/26/2019 23:00 455.08 0.00 -- 6.7 40.0
02/26/2019 22:00 455.08 0.00 -- 7.2 40.0
02/26/2019 21:00 455.08 0.00 -- 7.8 40.3
02/26/2019 20:00 455.10 0.00 -- 8.5 41.5
02/26/2019 19:00 455.09 0.00 -- 9.5 41.5
02/26/2019 18:00 455.10 0.00 -- 10.9 42.0
02/26/2019 17:00 455.11 0.00 -- 13.0 43.0
02/26/2019 16:00 455.11 0.00 -- 15.4 42.0
02/26/2019 15:00 455.10 0.00 -- 16.2 42.3
02/26/2019 14:00 455.12 0.00 -- 17.7 42.8
02/26/2019 13:00 455.11 0.00 -- 15.9 43.0
02/26/2019 12:00 455.11 0.00 -- 15.3 42.5
02/26/2019 11:00 455.10 0.00 -- 15.6 40.8
02/26/2019 10:00 455.10 0.00 -- 14.1 40.8
02/26/2019 09:00 455.09 0.00 -- 12.9 41.0
02/26/2019 08:00 455.09 0.00 -- 12.6 39.8
02/26/2019 07:00 455.10 0.00 -- 10.7 41.3
02/26/2019 06:00 455.10 0.00 -- 11.7 42.8
02/26/2019 05:00 455.10 0.00 -- 13.1 42.8
02/26/2019 04:00 455.12 0.00 -- 14.5 43.5
02/26/2019 03:00 455.11 0.00 -- 15.6 43.8
02/26/2019 02:00 455.12 0.00 -- 16.5 43.5
02/26/2019 01:00 455.12 0.00 -- 17.2 44.0
02/26/2019 00:00 455.13 0.00 0.00 18.6 44.8
02/25/2019 23:00 455.13 0.00 -- 19.7 44.8
02/25/2019 22:00 455.13 0.00 -- 21.8 45.0
02/25/2019 21:00 455.13 0.00 -- 22.7 44.8
02/25/2019 20:00 455.13 0.00 -- 22.3 44.3
02/25/2019 19:00 455.13 0.00 -- 21.8 44.8
02/25/2019 18:00 455.12 0.00 -- 26.6 44.8
02/25/2019 17:00 455.14 0.00 -- 27.0 46.0
02/25/2019 16:00 455.15 0.00 -- 29.5 52.3
02/25/2019 15:00 455.18 0.00 -- 30.0 49.8
02/25/2019 14:00 455.13 0.00 -- 30.2 45.5
02/25/2019 13:00 455.14 0.00 -- 31.4 47.8
02/25/2019 12:00 455.12 0.00 -- 31.2 45.5
02/25/2019 11:00 455.15 0.00 -- 30.8 46.3
02/25/2019 10:00 455.12 0.00 -- 31.0 44.3
02/25/2019 09:00 455.12 0.00 -- 33.2 43.8
02/25/2019 08:00 455.11 0.00 -- 31.9 43.8
02/25/2019 07:00 455.11 0.00 -- 32.4 43.8
02/25/2019 06:00 455.13 0.01 -- 33.3 45.5
02/25/2019 05:00 455.13 0.00 -- 34.7 45.0
02/25/2019 04:00 455.13 0.01 -- 35.5 45.0
02/25/2019 03:00 455.13 0.01 -- 34.4 45.0
02/25/2019 02:00 455.12 0.00 -- 35.9 44.8
02/25/2019 01:00 455.11 0.01 -- 36.5 44.3
02/25/2019 00:00 455.14 0.00 0.04 37.2 45.8
02/24/2019 23:00 455.14 0.00 -- 36.2 46.0
02/24/2019 22:00 455.13 0.00 -- 32.1 45.5
02/24/2019 21:00 455.13 0.00 -- 32.1 45.0
02/24/2019 20:00 455.13 0.00 -- 32.5 44.8
02/24/2019 19:00 455.13 0.00 -- 31.9 43.8
02/24/2019 18:00 455.12 0.00 -- 31.0 44.8
02/24/2019 17:00 455.12 0.00 -- 30.7 44.0
02/24/2019 16:00 455.12 0.00 -- 31.2 43.8
02/24/2019 15:00 455.12 0.00 -- 31.8 43.8
02/24/2019 14:00 455.12 0.00 -- 32.1 43.5
02/24/2019 13:00 455.11 0.00 -- 32.2 43.0
02/24/2019 12:00 455.11 0.00 -- 31.4 43.0
02/24/2019 11:00 455.10 0.00 -- 29.1 42.5
02/24/2019 10:00 455.11 0.00 -- 27.6 42.0
02/24/2019 09:00 455.11 0.00 -- 25.5 42.3
02/24/2019 08:00 455.10 0.00 -- 25.1 42.0
02/24/2019 07:00 455.10 0.00 -- 24.2 42.0
02/24/2019 06:00 455.10 0.00 -- 24.6 41.8
02/24/2019 05:00 455.10 0.00 -- 24.0 42.0
02/24/2019 04:00 455.10 0.00 -- 23.4 41.8
02/24/2019 03:00 455.10 0.00 -- 22.4 42.0
02/24/2019 02:00 455.10 0.00 -- 21.4 41.8
02/24/2019 01:00 455.10 0.00 -- 19.5 42.0
02/24/2019 00:00 455.10 0.00 0.00 19.9 42.0
02/23/2019 23:00 455.10 0.00 -- 20.9 42.0
02/23/2019 22:00 455.10 0.00 -- 22.5 42.3
02/23/2019 21:00 455.10 0.00 -- 23.2 42.3
02/23/2019 20:00 455.11 0.00 -- 25.0 42.5
02/23/2019 19:00 455.10 0.00 -- 26.4 42.0
02/23/2019 18:00 455.11 0.00 -- 29.0 42.8
02/23/2019 17:00 455.11 0.01 -- 40.3 42.5
02/23/2019 16:00 455.11 0.01 -- 41.4 42.3
02/23/2019 15:00 455.11 0.01 -- 42.8 42.8
02/23/2019 14:00 455.11 0.01 -- 39.5 42.5
02/23/2019 13:00 455.11 0.02 -- 37.9 42.3
02/23/2019 12:00 455.11 0.00 -- 36.9 43.0
02/23/2019 11:00 455.11 0.00 -- 35.2 43.0
02/23/2019 10:00 455.11 0.00 -- 30.8 43.0
02/23/2019 09:00 455.11 0.00 -- 27.6 42.8
02/23/2019 08:00 455.11 0.00 -- 15.0 43.0
02/23/2019 07:00 455.12 0.00 -- 9.6 43.3
02/23/2019 06:00 455.12 0.00 -- 10.2 43.5
02/23/2019 05:00 455.11 0.00 -- 12.4 42.8
02/23/2019 04:00 455.12 0.00 -- 12.8 43.3
02/23/2019 03:00 455.11 0.00 -- 16.2 43.0
02/23/2019 02:00 455.12 0.00 -- 16.6 43.3
02/23/2019 01:00 455.12 0.00 -- 19.6 43.3
02/23/2019 00:00 455.12 0.00 0.06 22.3 43.8
02/22/2019 23:00 455.12 0.00 -- 24.1 43.5
02/22/2019 22:00 455.12 0.00 -- 26.2 43.5
02/22/2019 21:00 455.11 0.00 -- 28.8 43.8
02/22/2019 20:00 455.12 0.00 -- 30.8 44.0
02/22/2019 19:00 455.12 0.00 -- 31.9 44.3
02/22/2019 18:00 455.12 0.00 -- 32.6 44.3
02/22/2019 17:00 455.12 0.01 -- 35.7 44.3
02/22/2019 16:00 455.13 0.03 -- 38.0 44.3
02/22/2019 15:00 455.12 0.06 -- 39.0 44.3
02/22/2019 14:00 455.12 0.04 -- 40.7 44.0
02/22/2019 13:00 455.12 0.02 -- 42.0 44.8
02/22/2019 12:00 455.12 0.01 -- 36.9 44.8
02/22/2019 11:00 455.13 0.00 -- 36.4 44.5
02/22/2019 10:00 455.12 0.00 -- 35.0 44.5
02/22/2019 09:00 455.13 0.00 -- 32.9 44.5
02/22/2019 08:00 455.13 0.00 -- 30.9 44.5
02/22/2019 07:00 455.13 0.00 -- 29.7 44.8
02/22/2019 06:00 455.13 0.00 -- 31.2 45.0
02/22/2019 05:00 455.13 0.00 -- 31.8 45.5
02/22/2019 04:00 455.14 0.00 -- 32.6 45.0
02/22/2019 03:00 455.14 0.00 -- 34.0 45.8
02/22/2019 02:00 455.14 0.00 -- 34.7 47.3
02/22/2019 01:00 455.13 0.00 -- 34.9 45.0
02/22/2019 00:00 455.13 0.00 0.17 36.1 44.5
02/21/2019 23:00 455.13 0.00 -- 36.8 45.3
02/21/2019 22:00 455.13 0.01 -- 36.1 45.3
02/21/2019 21:00 455.14 0.01 -- 38.3 45.8
02/21/2019 20:00 455.13 0.01 -- 38.5 45.5
02/21/2019 19:00 455.14 0.01 -- 37.9 46.3
02/21/2019 18:00 455.14 0.03 -- 37.5 46.0
02/21/2019 17:00 455.14 0.06 -- 39.7 46.0
02/21/2019 16:00 455.13 0.06 -- 40.1 45.3
02/21/2019 15:00 455.13 0.06 -- 40.3 45.5
02/21/2019 14:00 455.14 0.04 -- 38.9 45.8
02/21/2019 13:00 455.13 0.03 -- 39.0 45.5
02/21/2019 12:00 455.13 0.00 -- 34.4 45.3
02/21/2019 11:00 455.11 0.01 -- 34.3 42.3
02/21/2019 10:00 455.10 0.00 -- 26.0 41.5
02/21/2019 09:00 455.09 0.00 -- 21.8 41.0
02/21/2019 08:00 455.09 0.00 -- 20.8 41.0
02/21/2019 07:00 455.09 0.00 -- 20.1 42.5
02/21/2019 06:00 455.11 0.00 -- 19.8 43.0
02/21/2019 05:00 455.12 0.00 -- 19.9 43.5
02/21/2019 04:00 455.12 0.00 -- 19.8 43.5
02/21/2019 03:00 455.12 0.00 -- 19.8 44.0
02/21/2019 02:00 455.12 0.00 -- 20.8 44.3
02/21/2019 01:00 455.12 0.00 -- 20.9 43.8
02/21/2019 00:00 455.12 0.00 0.33 21.6 44.0
02/20/2019 23:00 455.12 0.00 -- 23.3 43.8
02/20/2019 22:00 455.12 0.00 -- 23.3 44.0
02/20/2019 21:00 455.12 0.00 -- 23.5 44.0
02/20/2019 20:00 455.12 0.00 -- 23.9 43.8
02/20/2019 19:00 455.12 0.00 -- 24.2 44.0
02/20/2019 18:00 455.12 0.00 -- 25.6 44.0
02/20/2019 17:00 455.12 0.00 -- 26.9 44.0
02/20/2019 16:00 455.12 0.00 -- 27.5 44.0
02/20/2019 15:00 455.12 0.00 -- 27.5 44.0
02/20/2019 14:00 455.12 0.00 -- 25.4 44.5
02/20/2019 13:00 455.13 0.00 -- 25.3 44.0
02/20/2019 12:00 455.12 0.00 -- 23.0 43.5
02/20/2019 11:00 455.10 0.00 -- 21.4 42.3
02/20/2019 10:00 455.10 0.00 -- 18.7 42.3
02/20/2019 09:00 455.11 0.00 -- 12.9 42.3
02/20/2019 08:00 455.10 0.00 -- 6.3 42.0
02/20/2019 07:00 455.10 0.00 -- 3.1 42.5
02/20/2019 06:00 455.11 0.00 -- 5.8 43.0
02/20/2019 05:00 455.11 0.00 -- 9.1 43.0
02/20/2019 04:00 455.11 0.00 -- 18.0 43.0
02/20/2019 03:00 455.12 0.00 -- 17.7 43.3
02/20/2019 02:00 455.12 0.00 -- 17.3 43.8
02/20/2019 01:00 455.12 0.00 -- 17.0 44.8
02/20/2019 00:00 455.13 0.00 0.00 16.5 44.8
02/19/2019 23:00 455.14 0.00 -- 16.4 45.3
02/19/2019 22:00 455.14 0.00 -- 16.3 45.8
02/19/2019 21:00 455.14 0.00 -- 8.4 46.0
02/19/2019 20:00 455.14 0.00 -- 16.1 45.8
02/19/2019 19:00 455.14 0.00 -- 16.7 45.8
02/19/2019 18:00 455.14 0.00 -- 17.9 46.3
02/19/2019 17:00 455.14 0.00 -- 20.3 46.0
02/19/2019 16:00 455.14 0.00 -- 21.7 47.5
02/19/2019 15:00 455.14 0.00 -- 22.4 46.3
02/19/2019 14:00 455.15 0.00 -- 22.4 50.0
02/19/2019 13:00 455.15 0.00 -- 22.4 48.0
02/19/2019 12:00 455.14 0.00 -- 22.3 46.0
02/19/2019 11:00 455.15 0.00 -- 19.5 46.0
02/19/2019 10:00 455.14 0.00 -- 17.9 45.5
02/19/2019 09:00 455.12 0.00 -- 17.5 44.0
02/19/2019 08:00 455.12 0.00 -- 8.0 44.0
02/19/2019 07:00 455.13 0.00 -- 4.2 44.5
02/19/2019 06:00 455.12 0.00 -- 10.4 44.8
02/19/2019 05:00 455.13 0.00 -- 10.0 45.3
02/19/2019 04:00 455.14 0.00 -- 11.9 46.0
02/19/2019 03:00 455.14 0.00 -- 13.6 47.8
02/19/2019 02:00 455.15 0.00 -- 14.2 47.0
02/19/2019 01:00 455.16 0.00 -- 14.4 52.0
02/19/2019 00:00 455.15 0.00 0.00 15.2 53.3
02/18/2019 23:00 455.17 0.00 -- 15.2 54.3
02/18/2019 22:00 455.16 0.00 -- 15.0 52.5
02/18/2019 21:00 455.15 0.00 -- 17.0 51.0
02/18/2019 20:00 455.17 0.00 -- 19.9 52.8
02/18/2019 19:00 455.17 0.00 -- 19.6 52.5
02/18/2019 18:00 455.17 0.00 -- 19.8 53.0
02/18/2019 17:00 455.16 0.00 -- 25.4 52.8
02/18/2019 16:00 455.16 0.00 -- 25.4 52.5
02/18/2019 15:00 455.17 0.00 -- 25.6 53.3
02/18/2019 14:00 455.17 0.00 -- 24.6 53.3
02/18/2019 13:00 455.17 0.00 -- 23.6 53.0
02/18/2019 12:00 455.16 0.00 -- 21.8 53.0
02/18/2019 11:00 455.17 0.00 -- 20.7 53.0
02/18/2019 10:00 455.17 0.00 -- 18.7 53.3
02/18/2019 09:00 455.17 0.00 -- 18.3 53.3
02/18/2019 08:00 455.16 0.00 -- 18.7 53.0
02/18/2019 07:00 455.16 0.00 -- 19.6 53.0
02/18/2019 06:00 455.17 0.00 -- 20.4 53.8
02/18/2019 05:00 455.16 0.00 -- 20.2 53.8
02/18/2019 04:00 455.17 0.00 -- 18.7 53.8
02/18/2019 03:00 455.17 0.00 -- 18.7 54.0
02/18/2019 02:00 455.18 0.00 -- 17.8 53.8
02/18/2019 01:00 455.18 0.00 -- 18.7 54.3
02/18/2019 00:00 455.17 0.00 0.00 19.8 54.0
02/17/2019 23:00 455.18 0.00 -- 19.0 54.8
02/17/2019 22:00 455.18 0.00 -- 20.2 55.0
02/17/2019 21:00 455.19 0.00 -- 20.0 55.3
02/17/2019 20:00 455.19 0.00 -- 20.2 55.5
02/17/2019 19:00 455.18 0.00 -- 23.4 54.8
02/17/2019 18:00 455.19 0.00 -- 27.5 56.3
02/17/2019 17:00 455.19 0.00 -- 31.5 56.0
02/17/2019 16:00 455.20 0.01 -- 33.0 56.8
02/17/2019 15:00 455.19 0.00 -- 37.0 57.0
02/17/2019 14:00 455.20 0.00 -- 35.9 55.0
02/17/2019 13:00 455.16 0.00 -- 33.4 54.8
02/17/2019 12:00 455.19 0.00 -- 30.3 57.3
02/17/2019 11:00 455.18 0.00 -- 29.3 55.3
02/17/2019 10:00 455.18 0.00 -- 26.5 55.0
02/17/2019 09:00 455.18 0.00 -- 22.0 55.3
02/17/2019 08:00 455.18 0.00 -- 8.2 55.3
02/17/2019 07:00 455.19 0.00 -- 6.8 55.8
02/17/2019 06:00 455.19 0.00 -- 11.3 55.8
02/17/2019 05:00 455.18 0.00 -- 16.7 55.8
02/17/2019 04:00 455.19 0.00 -- 18.5 56.0
02/17/2019 03:00 455.19 0.00 -- 20.8 56.3
02/17/2019 02:00 455.19 0.00 -- 20.5 56.3
02/17/2019 01:00 455.20 0.00 -- 19.3 56.8
02/17/2019 00:00 455.19 0.00 0.01 20.2 56.8
02/16/2019 23:00 455.20 0.00 -- 19.3 57.3
02/16/2019 22:00 455.20 0.00 -- 21.3 57.0
02/16/2019 21:00 455.19 0.00 -- 22.1 56.8
02/16/2019 20:00 455.21 0.00 -- 25.4 58.5
02/16/2019 19:00 455.21 0.00 -- 27.7 58.3
02/16/2019 18:00 455.21 0.00 -- 29.6 57.8
02/16/2019 17:00 455.20 0.00 -- 31.2 57.0
02/16/2019 16:00 455.20 0.00 -- 34.2 57.8
02/16/2019 15:00 455.21 0.00 -- 34.2 57.8
02/16/2019 14:00 455.21 0.00 -- 34.3 58.5
02/16/2019 13:00 455.21 0.00 -- 34.0 58.3
02/16/2019 12:00 455.21 0.01 -- 34.7 58.8
02/16/2019 11:00 455.21 0.01 -- 33.0 58.5
02/16/2019 10:00 455.21 0.00 -- 31.6 59.3
02/16/2019 09:00 455.21 0.00 -- 29.3 58.8
02/16/2019 08:00 455.21 0.00 -- 24.9 59.8
02/16/2019 07:00 455.22 0.00 -- 18.5 58.5
02/16/2019 06:00 455.22 0.00 -- 20.2 59.3
02/16/2019 05:00 455.22 0.00 -- 20.8 59.0
02/16/2019 04:00 455.21 0.00 -- 23.2 59.0
02/16/2019 03:00 455.22 0.00 -- 26.6 59.3
02/16/2019 02:00 455.22 0.00 -- 29.0 59.8
02/16/2019 01:00 455.22 0.00 -- 28.0 59.5
02/16/2019 00:00 455.22 0.00 0.02 29.5 59.8
02/15/2019 23:00 455.21 0.00 -- 29.9 59.8
02/15/2019 22:00 455.22 0.00 -- 30.7 59.8
02/15/2019 21:00 455.22 0.00 -- 30.0 60.3
02/15/2019 20:00 455.22 0.00 -- 29.6 60.0
02/15/2019 19:00 455.22 0.00 -- 29.1 60.0
02/15/2019 18:00 455.22 0.00 -- 27.5 60.3
02/15/2019 17:00 455.22 0.00 -- 26.7 59.5
02/15/2019 16:00 455.22 0.00 -- 26.3 59.8
02/15/2019 15:00 455.22 0.00 -- 25.4 60.0
02/15/2019 14:00 455.23 0.00 -- 24.6 60.5
02/15/2019 13:00 455.21 0.00 -- 23.5 59.8
02/15/2019 12:00 455.22 0.00 -- 22.7 59.5
02/15/2019 11:00 455.23 0.00 -- 22.5 60.3
02/15/2019 10:00 455.22 0.00 -- 23.0 59.8
02/15/2019 09:00 455.22 0.00 -- 20.6 60.0
02/15/2019 08:00 455.23 0.00 -- 18.1 60.3
02/15/2019 07:00 455.23 0.00 -- 15.8 60.8
02/15/2019 06:00 455.23 0.00 -- 14.7 60.3
02/15/2019 05:00 455.23 0.00 -- 14.1 60.8
02/15/2019 04:00 455.23 0.00 -- 14.2 60.3
02/15/2019 03:00 455.24 0.00 -- 14.5 61.5
02/15/2019 02:00 455.22 0.00 -- 15.5 61.0
02/15/2019 01:00 455.24 0.00 -- 14.6 62.3
02/15/2019 00:00 455.24 0.00 0.00 13.2 62.3
02/14/2019 23:00 455.23 0.00 -- 13.8 61.8
02/14/2019 22:00 455.24 0.00 -- 16.2 62.8
02/14/2019 21:00 455.25 0.00 -- 18.5 62.8
02/14/2019 20:00 455.25 0.00 -- 21.6 62.8
02/14/2019 19:00 455.24 0.00 -- 22.4 62.5
02/14/2019 18:00 455.25 0.00 -- 26.1 63.8
02/14/2019 17:00 455.26 0.01 -- 31.6 63.3
02/14/2019 16:00 455.25 0.00 -- 33.9 63.3
02/14/2019 15:00 455.24 0.01 -- 33.4 63.3
02/14/2019 14:00 455.25 0.00 -- 32.3 63.8
02/14/2019 13:00 455.25 0.00 -- 29.9 63.8
02/14/2019 12:00 455.24 0.00 -- 29.6 63.5
02/14/2019 11:00 455.27 0.00 -- 29.1 64.8
02/14/2019 10:00 455.25 0.00 -- 27.9 63.5
02/14/2019 09:00 455.25 0.00 -- 26.8 64.0
02/14/2019 08:00 455.25 0.00 -- 24.9 63.8
02/14/2019 07:00 455.25 0.00 -- 25.0 63.8
02/14/2019 06:00 455.25 0.00 -- 25.5 64.0
02/14/2019 05:00 455.25 0.00 -- 25.7 64.8
02/14/2019 04:00 455.26 0.00 -- 25.4 64.5
02/14/2019 03:00 455.25 0.00 -- 25.0 64.3
02/14/2019 02:00 455.25 0.00 -- 24.3 64.8
02/14/2019 01:00 455.25 0.00 -- 24.2 64.8
02/14/2019 00:00 455.26 0.00 0.02 27.0 65.3
02/13/2019 23:00 455.26 0.00 -- 28.9 65.0
02/13/2019 22:00 455.26 0.00 -- 30.2 64.5
02/13/2019 21:00 455.26 0.00 -- 31.1 64.5
02/13/2019 20:00 455.25 0.00 -- 28.9 63.3
02/13/2019 19:00 455.25 0.00 -- 31.8 63.5
02/13/2019 18:00 455.24 0.00 -- 33.2 62.3
02/13/2019 17:00 455.26 0.01 -- 34.0 63.5
02/13/2019 16:00 455.25 0.01 -- 34.5 62.3
02/13/2019 15:00 455.24 0.01 -- 34.0 61.8
02/13/2019 14:00 455.23 0.00 -- 33.6 60.8
02/13/2019 13:00 455.22 0.00 -- 31.4 59.8
02/13/2019 12:00 455.22 0.00 -- 29.0 59.3
02/13/2019 11:00 455.22 0.00 -- 28.8 58.0
02/13/2019 10:00 455.20 -- -- 27.7 57.0
02/13/2019 09:00 455.20 -- -- 27.4 57.0
02/13/2019 08:00 455.21 0.00 -- 27.0 59.0
02/13/2019 07:00 455.20 0.00 -- 27.0 55.8
02/13/2019 06:00 455.19 0.00 -- 26.5 57.0
02/13/2019 05:00 455.20 0.00 -- 25.4 57.0
02/13/2019 04:00 455.19 0.00 -- 25.0 56.5
02/13/2019 03:00 455.20 0.00 -- 24.2 56.8
02/13/2019 02:00 455.19 0.00 -- 23.3 56.3
02/13/2019 01:00 455.18 0.00 -- 22.5 56.5
02/13/2019 00:00 455.20 0.00 -- 21.8 56.8
02/12/2019 23:00 455.20 0.00 -- 20.8 57.5
02/12/2019 22:00 455.20 0.00 -- 19.5 58.3
02/12/2019 21:00 455.22 0.00 -- 18.2 59.0
02/12/2019 20:00 455.22 0.00 -- 17.3 59.8
02/12/2019 19:00 455.22 0.00 -- 17.6 59.0
02/12/2019 18:00 455.22 0.00 -- 18.2 59.3
02/12/2019 17:00 455.22 0.00 -- 21.0 59.5
02/12/2019 16:00 455.22 0.00 -- 21.4 59.3
02/12/2019 15:00 455.22 0.00 -- 21.1 59.8
02/12/2019 14:00 455.22 0.00 -- 20.2 59.3
02/12/2019 13:00 455.21 0.00 -- 20.0 59.0
02/12/2019 12:00 455.21 0.00 -- 17.9 58.5
02/12/2019 11:00 455.21 0.00 -- 14.7 58.5
02/12/2019 10:00 455.21 0.00 -- 11.5 58.5
02/12/2019 09:00 455.21 0.00 -- 10.0 58.0
02/12/2019 08:00 455.21 0.00 -- 1.5 59.5
02/12/2019 07:00 455.22 0.00 -- -2.3 59.5
02/12/2019 06:00 455.22 0.00 -- -1.0 60.0
02/12/2019 05:00 455.22 0.00 -- 1.1 60.0
02/12/2019 04:00 455.23 0.00 -- 0.9 61.0
02/12/2019 03:00 455.23 0.00 -- 1.7 61.3
02/12/2019 02:00 455.24 0.00 -- 3.5 62.0
02/12/2019 01:00 455.25 0.00 -- 6.1 62.5
02/12/2019 00:00 455.25 0.00 0.00 5.6 62.8
02/11/2019 23:00 455.25 0.00 -- 7.9 63.0
02/11/2019 22:00 455.25 0.00 -- 9.9 63.8
02/11/2019 21:00 455.25 0.00 -- 12.5 64.3
02/11/2019 20:00 455.25 0.00 -- 15.5 63.3
02/11/2019 19:00 455.26 0.00 -- 18.9 64.5
02/11/2019 18:00 455.26 0.00 -- 22.1 64.8
02/11/2019 17:00 455.27 0.00 -- 25.1 65.0
02/11/2019 16:00 455.26 0.00 -- 27.8 65.3
02/11/2019 15:00 455.26 0.00 -- 29.6 65.5
02/11/2019 14:00 455.26 0.00 -- 29.5 64.8
02/11/2019 13:00 455.26 0.00 -- 29.5 65.0
02/11/2019 12:00 455.26 0.00 -- 27.6 64.8
02/11/2019 11:00 455.27 0.00 -- 26.3 65.3
02/11/2019 10:00 455.26 0.00 -- 24.1 64.5
02/11/2019 09:00 455.26 0.00 -- 21.0 65.5
02/11/2019 08:00 455.26 0.00 -- 19.0 65.8
02/11/2019 07:00 455.27 0.00 -- 17.4 66.0
02/11/2019 06:00 455.28 0.00 -- 19.1 67.3
02/11/2019 05:00 455.28 0.00 -- 19.6 68.0
02/11/2019 04:00 455.28 0.00 -- 21.1 67.5
02/11/2019 03:00 455.29 0.00 -- 20.8 68.3
02/11/2019 02:00 455.29 0.00 -- 20.7 68.5
02/11/2019 01:00 455.29 0.00 -- 20.7 68.8
02/11/2019 00:00 455.30 0.00 0.00 20.8 69.3
02/10/2019 23:00 455.29 0.00 -- 21.4 69.0
02/10/2019 22:00 455.28 0.00 -- 21.8 68.3
02/10/2019 21:00 455.29 0.00 -- 17.8 69.3
02/10/2019 20:00 455.30 0.00 -- 21.1 69.3
02/10/2019 19:00 455.29 0.00 -- 23.9 69.5
02/10/2019 18:00 455.31 0.00 -- 24.4 70.3
02/10/2019 17:00 455.29 0.00 -- 25.9 69.8
02/10/2019 16:00 455.30 0.00 -- 29.6 70.3
02/10/2019 15:00 455.29 0.00 -- 27.9 69.0
02/10/2019 14:00 455.29 0.00 -- 26.5 69.3
02/10/2019 13:00 455.29 0.00 -- 25.9 69.3
02/10/2019 12:00 455.30 0.00 -- 25.6 70.3
02/10/2019 11:00 455.29 0.00 -- 24.3 69.8
02/10/2019 10:00 455.30 0.00 -- 22.5 69.5
02/10/2019 09:00 455.30 0.00 -- 20.5 69.8
02/10/2019 08:00 455.30 0.00 -- 9.1 69.0
02/10/2019 07:00 455.29 0.00 -- 5.4 69.8
02/10/2019 06:00 455.31 0.00 -- 4.3 71.3
02/10/2019 05:00 455.32 0.00 -- 5.6 72.0
02/10/2019 04:00 455.32 0.00 -- 5.5 72.0
02/10/2019 03:00 455.32 0.00 -- 5.7 73.5
02/10/2019 02:00 455.32 0.00 -- 7.3 74.3
02/10/2019 01:00 455.34 0.00 -- 9.8 74.8
02/10/2019 00:00 455.35 0.00 0.00 9.6 75.3
02/09/2019 23:00 455.34 0.00 -- 12.5 75.8
02/09/2019 22:00 455.34 0.00 -- 18.2 76.0
02/09/2019 21:00 455.35 0.00 -- 19.1 76.5
02/09/2019 20:00 455.36 0.00 -- 19.9 78.0
02/09/2019 19:00 455.35 0.00 -- 21.0 76.5
02/09/2019 18:00 455.35 0.00 -- 21.9 77.0
02/09/2019 17:00 455.36 0.00 -- 23.6 77.3
02/09/2019 16:00 455.35 0.00 -- 25.3 77.0
02/09/2019 15:00 455.34 0.00 -- 25.3 76.0
02/09/2019 14:00 455.36 0.00 -- 26.7 76.8
02/09/2019 13:00 455.35 0.00 -- 25.5 77.0
02/09/2019 12:00 455.36 0.00 -- 23.6 79.0
02/09/2019 11:00 455.35 0.00 -- 23.3 78.5
02/09/2019 10:00 455.34 0.00 -- 20.5 76.8
02/09/2019 09:00 455.34 0.00 -- 19.8 76.8
02/09/2019 08:00 455.34 0.00 -- 18.4 76.8
02/09/2019 07:00 455.35 0.00 -- 18.8 77.0
02/09/2019 06:00 455.35 0.00 -- 19.3 77.0
02/09/2019 05:00 455.35 0.00 -- 19.3 77.5
02/09/2019 04:00 455.36 0.00 -- 19.8 78.8
02/09/2019 03:00 455.37 0.00 -- 20.7 79.3
02/09/2019 02:00 455.35 0.00 -- 22.0 75.8
02/09/2019 01:00 455.34 0.00 -- 24.0 78.0
02/09/2019 00:00 455.36 0.00 0.00 25.8 77.0
02/08/2019 23:00 455.35 0.00 -- 26.5 77.0
02/08/2019 22:00 455.34 0.00 -- 27.4 77.0
02/08/2019 21:00 455.33 0.00 -- 29.7 76.0
02/08/2019 20:00 455.35 0.00 -- 31.1 76.3
02/08/2019 19:00 455.34 0.00 -- 32.8 75.8
02/08/2019 18:00 455.34 0.00 -- 35.6 75.0
02/08/2019 17:00 455.35 0.01 -- 40.7 75.0
02/08/2019 16:00 455.33 0.00 -- 45.8 73.8
02/08/2019 15:00 455.33 0.00 -- 49.1 74.0
02/08/2019 14:00 455.33 0.04 -- 48.3 72.8
02/08/2019 13:00 455.32 0.08 -- 44.8 72.0
02/08/2019 12:00 455.31 0.04 -- 38.3 71.8
02/08/2019 11:00 455.31 0.02 -- 36.1 71.3
02/08/2019 10:00 455.30 0.03 -- 35.0 70.3
02/08/2019 09:00 455.31 0.03 -- 35.3 70.8
02/08/2019 08:00 455.30 0.02 -- 34.0 71.0
02/08/2019 07:00 455.31 0.00 -- 33.0 71.5
02/08/2019 06:00 455.30 0.01 -- 32.7 70.5
02/08/2019 05:00 455.31 0.00 -- 32.7 70.8
02/08/2019 04:00 455.32 0.03 -- 32.6 72.3
02/08/2019 03:00 455.31 0.06 -- 33.0 71.0
02/08/2019 02:00 455.31 0.01 -- 32.8 71.3
02/08/2019 01:00 455.31 0.02 -- 32.7 71.5
02/08/2019 00:00 455.31 0.00 0.40 32.8 71.3
02/07/2019 23:00 455.32 0.01 -- 32.9 71.5
02/07/2019 22:00 455.31 0.00 -- 33.0 71.3
02/07/2019 21:00 455.31 0.00 -- 33.1 71.8
02/07/2019 20:00 455.31 0.01 -- 33.1 71.8
02/07/2019 19:00 455.32 0.00 -- 33.2 71.8
02/07/2019 18:00 455.32 0.01 -- 33.2 71.8
02/07/2019 17:00 455.32 0.00 -- 33.4 72.8
02/07/2019 16:00 455.33 0.02 -- 33.4 72.5
02/07/2019 15:00 455.32 0.03 -- 33.8 72.3
02/07/2019 14:00 455.31 0.00 -- 33.5 72.3
02/07/2019 13:00 455.32 0.00 -- 33.8 72.8
02/07/2019 12:00 455.33 0.00 -- 32.7 73.8
02/07/2019 11:00 455.32 0.00 -- 32.0 73.3
02/07/2019 10:00 455.32 0.00 -- 30.8 73.3
02/07/2019 09:00 455.32 0.00 -- 29.8 73.3
02/07/2019 08:00 455.33 0.00 -- 29.4 74.3
02/07/2019 07:00 455.33 0.00 -- 29.1 75.3
02/07/2019 06:00 455.33 0.00 -- 28.9 74.0
02/07/2019 05:00 455.32 0.00 -- 28.8 74.8
02/07/2019 04:00 455.34 0.00 -- 28.5 75.3
02/07/2019 03:00 455.34 0.00 -- 28.2 75.0
02/07/2019 02:00 455.34 0.00 -- 28.3 76.5
02/07/2019 01:00 455.34 0.00 -- 28.1 75.5
02/07/2019 00:00 455.35 0.00 0.08 27.9 76.3
02/06/2019 23:00 455.34 0.01 -- 28.1 75.0
02/06/2019 22:00 455.32 0.00 -- 29.1 73.0
02/06/2019 21:00 455.32 0.00 -- 30.6 73.5
02/06/2019 20:00 455.32 0.00 -- 31.4 74.0
02/06/2019 19:00 455.32 0.00 -- 31.9 74.0
02/06/2019 18:00 455.32 0.00 -- 32.7 74.3
02/06/2019 17:00 455.32 0.00 -- 34.6 74.3
02/06/2019 16:00 455.33 0.00 -- 37.1 73.8
02/06/2019 15:00 455.34 0.00 -- 38.7 74.0
02/06/2019 14:00 455.33 0.00 -- 41.0 73.8
02/06/2019 13:00 455.32 0.00 -- 39.5 73.5
02/06/2019 12:00 455.32 0.00 -- 40.2 72.8
02/06/2019 11:00 455.32 0.00 -- 37.6 71.5
02/06/2019 10:00 455.33 0.00 -- 35.2 72.5
02/06/2019 09:00 455.31 0.00 -- 29.0 72.3
02/06/2019 08:00 455.31 0.00 -- 22.3 71.5
02/06/2019 07:00 455.31 0.00 -- 20.6 71.5
02/06/2019 06:00 455.31 0.00 -- 21.9 71.3
02/06/2019 05:00 455.31 0.00 -- 22.3 71.0
02/06/2019 04:00 455.31 0.00 -- 23.7 70.8
02/06/2019 03:00 455.30 0.00 -- 25.3 70.5
02/06/2019 02:00 455.29 0.00 -- 25.6 70.3
02/06/2019 01:00 455.30 0.00 -- 27.7 69.5
02/06/2019 00:00 455.30 0.00 0.01 28.9 69.5
02/05/2019 23:00 455.29 0.00 -- 34.6 68.8
02/05/2019 22:00 455.29 0.00 -- 36.5 69.3
02/05/2019 21:00 455.29 0.00 -- 38.4 69.0
02/05/2019 20:00 455.28 0.00 -- 39.4 67.5
02/05/2019 19:00 455.28 0.00 -- 40.6 68.0
02/05/2019 18:00 455.28 0.00 -- 46.1 67.5
02/05/2019 17:00 455.28 0.00 -- 52.9 67.8
02/05/2019 16:00 455.28 0.00 -- 57.0 67.0
02/05/2019 15:00 455.27 0.00 -- 60.0 65.8
02/05/2019 14:00 455.26 0.01 -- 58.3 64.8
02/05/2019 13:00 455.26 0.00 -- 57.5 64.8
02/05/2019 12:00 455.27 0.00 -- 57.5 65.0
02/05/2019 11:00 455.26 0.00 -- 53.5 65.0
02/05/2019 10:00 455.26 0.01 -- 49.5 64.5
02/05/2019 09:00 455.26 0.01 -- 44.5 64.5
02/05/2019 08:00 455.26 0.03 -- 41.5 64.5
02/05/2019 07:00 455.26 0.02 -- 40.1 64.5
02/05/2019 06:00 455.26 0.00 -- 39.2 64.8
02/05/2019 05:00 455.26 0.00 -- 29.6 64.3
02/05/2019 04:00 455.26 0.00 -- 28.1 64.0
02/05/2019 03:00 455.26 0.00 -- 28.4 64.0
02/05/2019 02:00 455.25 0.00 -- 27.8 63.5
02/05/2019 01:00 455.26 0.00 -- 28.3 64.5
02/05/2019 00:00 455.26 0.00 0.08 28.6 64.0
02/04/2019 23:00 455.26 0.00 -- 29.0 63.8
02/04/2019 22:00 455.25 0.00 -- 29.8 63.3
02/04/2019 21:00 455.25 0.00 -- 30.5 63.8
02/04/2019 20:00 455.25 0.01 -- 32.6 63.0
02/04/2019 19:00 455.26 0.00 -- 36.1 64.0
02/04/2019 18:00 455.26 0.01 -- 37.6 64.0
02/04/2019 17:00 455.25 0.03 -- 46.0 63.5
02/04/2019 16:00 455.26 0.09 -- 56.0 63.5
02/04/2019 15:00 455.25 0.19 -- 57.0 63.0
02/04/2019 14:00 455.25 0.30 -- 55.9 62.8
02/04/2019 13:00 455.24 0.13 -- 56.1 62.0
02/04/2019 12:00 455.25 0.06 -- 45.6 62.0
02/04/2019 11:00 455.24 0.00 -- 39.5 62.0
02/04/2019 10:00 455.23 0.00 -- 31.7 61.8
02/04/2019 09:00 455.24 0.00 -- 29.2 62.3
02/04/2019 08:00 455.24 0.00 -- 26.4 62.3
02/04/2019 07:00 455.24 0.00 -- 26.3 62.0
02/04/2019 06:00 455.23 0.00 -- 26.0 61.3
02/04/2019 05:00 455.23 0.00 -- 25.2 61.5
02/04/2019 04:00 455.24 0.00 -- 25.8 61.3
02/04/2019 03:00 455.23 0.00 -- 26.1 61.5
02/04/2019 02:00 455.23 0.00 -- 28.1 61.3
02/04/2019 01:00 455.24 0.00 -- 28.7 61.5
02/04/2019 00:00 455.22 0.00 0.82 28.3 61.5
02/03/2019 23:00 455.23 0.00 -- 28.1 61.0
02/03/2019 22:00 455.23 0.00 -- 28.4 61.3
02/03/2019 21:00 455.22 0.00 -- 28.3 60.8
02/03/2019 20:00 455.22 0.00 -- 28.2 60.8
02/03/2019 19:00 455.23 0.00 -- 28.5 60.8
02/03/2019 18:00 455.22 0.00 -- 29.1 59.8
02/03/2019 17:00 455.23 0.00 -- 29.8 60.5
02/03/2019 16:00 455.22 0.00 -- 30.4 59.8
02/03/2019 15:00 455.23 0.00 -- 30.5 59.5
02/03/2019 14:00 455.22 0.00 -- 30.7 59.5
02/03/2019 13:00 455.22 0.00 -- 30.6 59.5
02/03/2019 12:00 455.22 0.00 -- 32.0 58.8
02/03/2019 11:00 455.22 0.00 -- 27.7 59.3
02/03/2019 10:00 455.22 0.00 -- 22.5 59.0
02/03/2019 09:00 455.21 0.00 -- 18.1 59.5
02/03/2019 08:00 455.21 0.00 -- 13.7 59.0
02/03/2019 07:00 455.22 0.00 -- 11.7 59.8
02/03/2019 06:00 455.23 0.00 -- 12.6 60.5
02/03/2019 05:00 455.23 0.00 -- 10.2 60.5
02/03/2019 04:00 455.22 0.00 -- 12.9 60.0
02/03/2019 03:00 455.22 0.00 -- 18.2 60.5
02/03/2019 02:00 455.22 0.00 -- 22.5 60.3
02/03/2019 01:00 455.23 0.00 -- 23.9 60.3
02/03/2019 00:00 455.23 0.00 0.00 24.9 60.3
02/02/2019 23:00 455.22 0.00 -- 26.4 60.5
02/02/2019 22:00 455.21 0.00 -- 26.9 60.3
02/02/2019 21:00 455.23 0.00 -- 18.5 60.5
02/02/2019 20:00 455.23 0.00 -- 23.0 60.8
02/02/2019 19:00 455.22 0.00 -- 23.6 60.0
02/02/2019 18:00 455.22 0.00 -- 22.7 60.3
02/02/2019 17:00 455.22 0.00 -- 25.6 60.8
02/02/2019 16:00 455.22 0.00 -- 25.9 59.8
02/02/2019 15:00 455.22 0.00 -- 25.6 60.0
02/02/2019 14:00 455.21 0.00 -- 24.3 59.5
02/02/2019 13:00 455.22 0.00 -- 19.5 60.0
02/02/2019 12:00 455.22 0.00 -- 18.7 59.3
02/02/2019 11:00 455.23 0.00 -- 15.2 60.5
02/02/2019 10:00 455.23 0.00 -- 10.8 60.8
02/02/2019 09:00 455.23 0.00 -- 4.4 61.0
02/02/2019 08:00 455.22 0.00 -- 0.3 60.8
02/02/2019 07:00 455.22 0.00 -- -1.7 61.0
02/02/2019 06:00 455.23 0.00 -- -3.8 61.0
02/02/2019 05:00 455.24 0.00 -- -4.1 62.3
02/02/2019 04:00 455.24 0.00 -- -2.8 61.3
02/02/2019 03:00 455.24 0.00 -- -4.1 62.5
02/02/2019 02:00 455.25 0.00 -- -3.0 62.8
02/02/2019 01:00 455.25 0.00 -- -0.2 63.0
02/02/2019 00:00 455.24 0.00 0.00 -1.7 63.0
02/01/2019 23:00 455.24 0.00 -- -2.1 62.0
02/01/2019 22:00 455.24 0.00 -- -1.0 62.5
02/01/2019 21:00 455.24 0.00 -- 1.3 62.3
02/01/2019 20:00 455.24 0.00 -- 5.0 62.5
02/01/2019 19:00 455.24 0.00 -- 9.3 62.5
02/01/2019 18:00 455.25 0.00 -- 15.8 63.8
02/01/2019 17:00 455.26 0.00 -- 17.0 64.3
02/01/2019 16:00 455.24 0.00 -- 21.2 63.5
02/01/2019 15:00 455.26 0.00 -- 21.2 64.5
02/01/2019 14:00 455.25 0.00 -- 19.3 64.0
02/01/2019 13:00 455.26 0.00 -- 17.8 64.8
02/01/2019 12:00 455.26 0.00 -- 18.0 64.8
02/01/2019 11:00 455.27 0.00 -- 16.4 65.3
02/01/2019 10:00 455.25 0.00 -- 17.5 63.8
02/01/2019 09:00 455.25 0.00 -- 10.9 65.0
02/01/2019 08:00 455.27 0.00 -- 4.6 66.0
02/01/2019 07:00 455.28 0.00 -- 6.7 66.0
02/01/2019 06:00 455.27 0.00 -- 4.1 67.3
02/01/2019 05:00 455.28 0.00 -- 3.0 67.3
02/01/2019 04:00 455.28 0.00 -- 4.0 67.0
02/01/2019 03:00 455.27 0.00 -- 4.8 68.0
02/01/2019 02:00 455.29 0.00 -- 3.6 69.3
02/01/2019 01:00 455.30 0.00 -- 0.8 69.8
02/01/2019 00:00 455.30 0.00 0.00 3.2 68.8
01/31/2019 23:00 455.30 0.00 -- 5.5 69.5
01/31/2019 22:00 455.28 0.00 -- 6.6 69.3
01/31/2019 21:00 455.31 0.00 -- 6.7 69.8
01/31/2019 20:00 455.30 0.00 -- 7.4 70.0
01/31/2019 19:00 455.30 0.00 -- 8.8 69.8
01/31/2019 18:00 455.32 0.00 -- 9.3 71.3
01/31/2019 17:00 455.30 0.00 -- 10.6 70.3
01/31/2019 16:00 455.31 0.00 -- 12.9 71.0
01/31/2019 15:00 455.30 0.00 -- 13.4 71.5
01/31/2019 14:00 455.32 0.00 -- 13.3 71.5
01/31/2019 13:00 455.29 0.00 -- 11.2 71.3
01/31/2019 12:00 455.32 0.00 -- 9.2 73.3
01/31/2019 11:00 455.32 0.00 -- 7.8 72.5
01/31/2019 10:00 455.33 0.00 -- 2.9 73.0
01/31/2019 09:00 455.32 0.00 -- -0.3 74.5
01/31/2019 08:00 455.33 0.00 -- -2.1 74.8
01/31/2019 07:00 455.34 0.00 -- -1.6 75.5
01/31/2019 06:00 455.35 0.00 -- -0.4 76.0
01/31/2019 05:00 455.34 0.00 -- -2.1 77.5
01/31/2019 04:00 455.35 0.00 -- 0.8 77.3
01/31/2019 03:00 455.36 0.00 -- 3.6 78.0
01/31/2019 02:00 455.34 0.00 -- 5.2 78.3
01/31/2019 01:00 455.37 0.00 -- 6.3 79.3
01/31/2019 00:00 455.38 0.00 0.00 7.8 79.0
01/30/2019 23:00 455.37 0.00 -- 9.8 79.8
01/30/2019 22:00 455.37 0.00 -- 11.5 79.3
01/30/2019 21:00 455.37 0.00 -- 12.2 80.0
01/30/2019 20:00 455.38 0.00 -- 17.6 80.3
01/30/2019 19:00 455.37 0.00 -- 17.3 80.5
01/30/2019 18:00 455.38 0.00 -- 17.8 80.8
01/30/2019 17:00 455.38 0.00 -- 20.2 80.3
01/30/2019 16:00 455.37 0.00 -- 24.5 80.8
01/30/2019 15:00 455.39 0.00 -- 25.4 80.8
01/30/2019 14:00 455.37 0.00 -- 25.5 81.0
01/30/2019 13:00 455.39 0.00 -- 24.7 81.3
01/30/2019 12:00 455.41 0.00 -- 29.2 84.3
01/30/2019 11:00 455.39 0.00 -- 30.5 81.3
01/30/2019 10:00 455.39 0.00 -- 24.2 82.3
01/30/2019 09:00 455.38 0.00 -- 19.6 85.3
01/30/2019 08:00 455.39 0.00 -- 17.8 82.3
01/30/2019 07:00 455.38 0.00 -- 16.3 81.5
01/30/2019 06:00 455.40 0.00 -- 15.2 83.5
01/30/2019 05:00 455.40 0.00 -- 14.9 83.0
01/30/2019 04:00 455.41 0.00 -- 14.0 85.0
01/30/2019 03:00 455.41 0.00 -- 13.8 86.3
01/30/2019 02:00 455.41 0.00 -- 13.3 85.0
01/30/2019 01:00 455.40 0.00 -- 12.8 84.3
01/30/2019 00:00 455.41 0.00 0.00 12.9 86.3
01/29/2019 23:00 455.42 0.00 -- 12.5 85.8
01/29/2019 22:00 455.42 0.00 -- 11.5 86.8
01/29/2019 21:00 455.43 0.00 -- 11.2 86.5
01/29/2019 20:00 455.42 0.00 -- 11.0 86.0
01/29/2019 19:00 455.41 0.00 -- 11.4 86.8
01/29/2019 18:00 455.41 0.00 -- 11.6 88.0
01/29/2019 17:00 455.41 0.00 -- 12.8 87.0
01/29/2019 16:00 455.45 0.00 -- 12.9 89.3
01/29/2019 15:00 455.45 0.00 -- 12.7 89.3
01/29/2019 14:00 455.44 0.00 -- 12.8 90.0
01/29/2019 13:00 455.43 0.00 -- 12.6 90.3
01/29/2019 12:00 455.45 0.00 -- 10.1 91.0
01/29/2019 11:00 455.44 0.00 -- 9.0 91.0
01/29/2019 10:00 455.47 0.00 -- 7.5 92.5
01/29/2019 09:00 455.46 0.00 -- 5.2 93.0
01/29/2019 08:00 455.47 0.00 -- 0.5 95.3
01/29/2019 07:00 455.47 0.00 -- -4.3 96.0
01/29/2019 06:00 455.48 0.00 -- -3.0 95.3
01/29/2019 05:00 455.49 0.00 -- -1.6 96.3
01/29/2019 04:00 455.49 0.00 -- 1.2 97.0
01/29/2019 03:00 455.50 0.00 -- 2.2 98.5
01/29/2019 02:00 455.52 0.00 -- 1.4 99.0
01/29/2019 01:00 455.50 0.00 -- 1.6 99.0
01/29/2019 00:00 455.50 0.00 0.00 3.5 100.0
01/28/2019 23:00 455.49 0.00 -- 4.7 100.3
01/28/2019 22:00 455.50 0.00 -- 7.1 100.8
01/28/2019 21:00 455.52 0.00 -- 10.1 102.0
01/28/2019 20:00 455.52 0.00 -- 14.1 103.0
01/28/2019 19:00 455.53 0.00 -- 15.9 104.3
01/28/2019 18:00 455.54 0.00 -- 18.6 104.5
01/28/2019 17:00 455.54 0.00 -- 22.3 105.0
01/28/2019 16:00 455.55 0.00 -- 26.4 104.8
01/28/2019 15:00 455.56 0.00 -- 26.9 106.3
01/28/2019 14:00 455.56 0.00 -- 25.4 107.8
01/28/2019 13:00 455.54 0.00 -- 24.9 106.3
01/28/2019 12:00 455.57 0.00 -- 22.6 107.8
01/28/2019 11:00 455.57 0.00 -- 21.4 108.5
01/28/2019 10:00 455.56 0.00 -- 19.1 109.3
01/28/2019 09:00 455.58 0.00 -- 18.8 109.8
01/28/2019 08:00 455.56 0.00 -- 15.6 109.5
01/28/2019 07:00 455.59 0.00 -- 14.9 111.8
01/28/2019 06:00 455.58 0.00 -- 12.7 110.8
01/28/2019 05:00 455.57 0.00 -- 14.4 112.3
01/28/2019 04:00 455.58 0.00 -- 19.2 113.0
01/28/2019 03:00 455.61 0.00 -- 20.9 115.3
01/28/2019 02:00 455.61 0.00 -- 25.4 116.5
01/28/2019 01:00 455.61 0.00 -- 25.3 113.8
01/28/2019 00:00 455.62 0.00 0.00 26.9 117.5
01/27/2019 23:00 455.61 0.00 -- 23.7 118.3
01/27/2019 22:00 455.59 0.00 -- 21.5 116.8
01/27/2019 21:00 455.64 0.00 -- 21.6 119.3
01/27/2019 20:00 455.62 0.00 -- 22.6 118.0
01/27/2019 19:00 455.63 0.00 -- 22.8 119.0
01/27/2019 18:00 455.63 0.00 -- 22.4 120.5
01/27/2019 17:00 455.66 0.00 -- 22.6 121.3
01/27/2019 16:00 455.66 0.00 -- 21.9 122.0
01/27/2019 15:00 455.65 0.00 -- 23.6 120.8
01/27/2019 14:00 455.64 0.00 -- 24.4 122.0
01/27/2019 13:00 455.66 0.00 -- 22.7 123.0
01/27/2019 12:00 455.64 0.00 -- 21.6 124.5
01/27/2019 11:00 455.66 0.00 -- 18.1 124.8
01/27/2019 10:00 455.66 0.00 -- 17.2 123.3
01/27/2019 09:00 455.67 0.00 -- 9.1 126.0
01/27/2019 08:00 455.65 0.00 -- 4.6 125.8
01/27/2019 07:00 455.67 0.00 -- 3.9 126.3
01/27/2019 06:00 455.68 0.00 -- 6.0 126.5
01/27/2019 05:00 455.69 0.00 -- 6.7 128.5
01/27/2019 04:00 455.69 0.00 -- 4.2 128.5
01/27/2019 03:00 455.68 0.00 -- 3.8 130.0
01/27/2019 02:00 455.70 0.00 -- 4.3 131.0
01/27/2019 01:00 455.72 0.00 -- 6.1 130.5
01/27/2019 00:00 455.70 0.00 0.00 7.3 132.5
01/26/2019 23:00 455.69 0.00 -- 8.3 132.0
01/26/2019 22:00 455.71 0.00 -- 9.3 135.3
01/26/2019 21:00 455.77 0.00 -- 11.8 137.5
01/26/2019 20:00 455.71 0.00 -- 13.9 133.5
01/26/2019 19:00 455.73 0.00 -- 16.9 134.8
01/26/2019 18:00 455.74 0.00 -- 22.0 138.3
01/26/2019 17:00 455.75 0.00 -- 23.9 138.0
01/26/2019 16:00 455.75 0.00 -- 24.7 139.3
01/26/2019 15:00 455.75 0.00 -- 25.2 138.0
01/26/2019 14:00 455.76 0.00 -- 26.1 140.3
01/26/2019 13:00 455.76 0.00 -- 26.4 139.5
01/26/2019 12:00 455.75 0.00 -- 25.3 140.5
01/26/2019 11:00 455.76 0.00 -- 23.6 138.8
01/26/2019 10:00 455.76 0.00 -- 20.9 141.0
01/26/2019 09:00 455.77 0.00 -- 18.6 144.0
01/26/2019 08:00 455.76 0.00 -- 16.2 141.5
01/26/2019 07:00 455.76 0.00 -- 13.3 141.8
01/26/2019 06:00 455.75 0.00 -- 15.6 142.3
01/26/2019 05:00 455.79 0.00 -- 14.7 145.0
01/26/2019 04:00 455.75 0.00 -- 12.3 143.0
01/26/2019 03:00 455.80 0.00 -- 13.9 149.0
01/26/2019 02:00 455.78 0.00 -- 14.9 149.3
01/26/2019 01:00 455.79 0.00 -- 19.1 149.5
01/26/2019 00:00 455.79 0.00 0.00 21.6 149.3
01/25/2019 23:00 455.82 0.00 -- 22.9 150.3
01/25/2019 22:00 455.83 0.00 -- 24.1 150.3
01/25/2019 21:00 455.83 0.00 -- 25.3 154.8
01/25/2019 20:00 455.85 0.00 -- 24.9 153.5
01/25/2019 19:00 455.82 0.00 -- 27.1 152.5
01/25/2019 18:00 455.81 0.00 -- 29.8 149.3
01/25/2019 17:00 455.78 0.01 -- 30.4 155.3
01/25/2019 16:00 455.81 0.00 -- 32.3 157.3
01/25/2019 15:00 455.81 0.00 -- 35.5 151.0
01/25/2019 14:00 455.79 0.00 -- 33.2 151.0
01/25/2019 13:00 455.77 0.00 -- 33.3 148.0
01/25/2019 12:00 455.79 0.00 -- 34.7 145.5
01/25/2019 11:00 455.77 0.00 -- 33.9 141.5
01/25/2019 10:00 455.75 0.00 -- 32.6 137.0
01/25/2019 09:00 455.75 0.00 -- 31.2 138.0
01/25/2019 08:00 455.70 0.00 -- 25.6 134.8
01/25/2019 07:00 455.77 0.00 -- 26.1 140.3
01/25/2019 06:00 455.76 0.00 -- 29.4 140.0
01/25/2019 05:00 455.74 0.00 -- 29.4 136.3
01/25/2019 04:00 455.74 0.00 -- 28.1 132.8
01/25/2019 03:00 455.69 0.00 -- 31.0 125.3
01/25/2019 02:00 455.64 0.00 -- 33.4 119.5
01/25/2019 01:00 455.62 0.00 -- 34.3 114.8
01/25/2019 00:00 455.58 0.00 0.01 36.1 109.5
01/24/2019 23:00 455.54 0.01 -- 38.5 103.3
01/24/2019 22:00 455.51 0.04 -- 39.9 99.5
01/24/2019 21:00 455.50 0.07 -- 43.7 95.0
01/24/2019 20:00 455.46 0.09 -- 41.1 90.3
01/24/2019 19:00 455.43 0.10 -- 41.1 86.5
01/24/2019 18:00 455.40 0.10 -- 36.9 81.3
01/24/2019 17:00 455.36 0.18 -- 36.1 76.8
01/24/2019 16:00 455.32 0.32 -- 36.9 70.3
01/24/2019 15:00 455.27 0.32 -- 36.9 64.8
01/24/2019 14:00 455.24 0.34 -- 37.2 59.5
01/24/2019 13:00 455.20 0.29 -- 37.5 55.5
01/24/2019 12:00 455.16 0.19 -- 37.4 51.0
01/24/2019 11:00 455.14 0.22 -- 37.2 45.5
01/24/2019 10:00 455.12 0.18 -- 37.2 43.5
01/24/2019 09:00 455.10 0.14 -- 36.5 42.3
01/24/2019 08:00 455.09 0.13 -- 36.8 40.8
01/24/2019 07:00 455.08 0.10 -- 35.1 39.5
01/24/2019 06:00 455.07 0.05 -- 35.8 39.0
01/24/2019 05:00 455.07 0.05 -- 37.2 39.0
01/24/2019 04:00 455.07 0.06 -- 38.4 39.0
01/24/2019 03:00 455.07 0.07 -- 37.1 39.0
01/24/2019 02:00 455.07 0.04 -- 36.9 38.5
01/24/2019 01:00 455.06 0.00 -- 34.2 38.0
01/24/2019 00:00 455.06 0.00 3.09 35.2 38.0
01/23/2019 23:00 455.06 0.00 -- 34.3 38.0
01/23/2019 22:00 455.07 0.00 -- 29.9 38.0
01/23/2019 21:00 455.06 0.00 -- 27.1 38.0
01/23/2019 20:00 455.06 0.00 -- 26.9 38.0
01/23/2019 19:00 455.06 0.00 -- 28.9 37.3
01/23/2019 18:00 455.05 0.00 -- 30.4 37.5
01/23/2019 17:00 455.06 0.00 -- 30.6 37.8
01/23/2019 16:00 455.06 0.00 -- 30.7 37.8
01/23/2019 15:00 455.06 0.00 -- 30.3 38.0
01/23/2019 14:00 455.06 0.00 -- 30.1 37.8
01/23/2019 13:00 455.06 0.00 -- 28.7 37.5
01/23/2019 12:00 455.05 0.00 -- 27.5 37.3
01/23/2019 11:00 455.06 0.00 -- 24.7 37.5
01/23/2019 10:00 455.05 0.00 -- 19.6 37.0
01/23/2019 09:00 455.06 0.00 -- 14.9 38.0
01/23/2019 08:00 455.06 0.00 -- 12.8 38.0
01/23/2019 07:00 455.06 0.00 -- 11.6 38.0
01/23/2019 06:00 455.06 0.00 -- 8.8 38.0
01/23/2019 05:00 -- -- -- 9.3 37.8
01/23/2019 04:00 -- -- -- 9.4 38.0
01/23/2019 03:00 -- -- -- 9.9 38.0
01/23/2019 02:00 -- -- -- 12.0 38.3
01/23/2019 01:00 -- -- -- 13.6 38.5
01/23/2019 00:00 -- -- 0.00 14.0 38.5